<?xml version='1.0' encoding='UTF-8'?>
<gpx version="1.1" creator="https://www.komoot.de" xmlns="http://www.topografix.com/GPX/1/1" xmlns:xsi="http://www.w3.org/2001/XMLSchema-instance" xsi:schemaLocation="http://www.topografix.com/GPX/1/1 http://www.topografix.com/GPX/1/1/gpx.xsd">
  <metadata>
    <name>Wanderung</name>
    <author>
      <link href="https://www.komoot.de">
        <text>komoot</text>
        <type>text/html</type>
      </link>
    </author>
  </metadata>
  <trk>
    <name>Wanderung</name>
    <trkseg>
      <trkpt lat="50.586200" lon="9.540002">
        <ele>287.720917</ele>
        <time>2025-03-13T09:55:59.590Z</time>
      </trkpt>
      <trkpt lat="50.586278" lon="9.540075">
        <ele>287.720917</ele>
        <time>2025-03-13T09:56:39.161Z</time>
      </trkpt>
      <trkpt lat="50.586235" lon="9.540202">
        <ele>287.720917</ele>
        <time>2025-03-13T09:57:39.148Z</time>
      </trkpt>
      <trkpt lat="50.586303" lon="9.540053">
        <ele>287.720917</ele>
        <time>2025-03-13T09:58:05.153Z</time>
      </trkpt>
      <trkpt lat="50.586395" lon="9.540048">
        <ele>287.720917</ele>
        <time>2025-03-13T09:58:25.153Z</time>
      </trkpt>
      <trkpt lat="50.586482" lon="9.540103">
        <ele>287.720917</ele>
        <time>2025-03-13T09:58:34.148Z</time>
      </trkpt>
      <trkpt lat="50.586578" lon="9.540100">
        <ele>287.720917</ele>
        <time>2025-03-13T09:58:50.146Z</time>
      </trkpt>
      <trkpt lat="50.586673" lon="9.540138">
        <ele>287.720917</ele>
        <time>2025-03-13T09:58:56.150Z</time>
      </trkpt>
      <trkpt lat="50.586768" lon="9.540152">
        <ele>287.720917</ele>
        <time>2025-03-13T09:59:10.150Z</time>
      </trkpt>
      <trkpt lat="50.586878" lon="9.540150">
        <ele>287.720917</ele>
        <time>2025-03-13T09:59:16.153Z</time>
      </trkpt>
      <trkpt lat="50.586977" lon="9.540115">
        <ele>287.728668</ele>
        <time>2025-03-13T09:59:23.143Z</time>
      </trkpt>
      <trkpt lat="50.587083" lon="9.540113">
        <ele>287.738219</ele>
        <time>2025-03-13T09:59:31.143Z</time>
      </trkpt>
      <trkpt lat="50.587170" lon="9.540182">
        <ele>287.746996</ele>
        <time>2025-03-13T09:59:44.154Z</time>
      </trkpt>
      <trkpt lat="50.587265" lon="9.540178">
        <ele>287.755560</ele>
        <time>2025-03-13T09:59:50.157Z</time>
      </trkpt>
      <trkpt lat="50.587360" lon="9.540135">
        <ele>287.764466</ele>
        <time>2025-03-13T09:59:55.140Z</time>
      </trkpt>
      <trkpt lat="50.587465" lon="9.540158">
        <ele>287.774018</ele>
        <time>2025-03-13T10:00:09.147Z</time>
      </trkpt>
      <trkpt lat="50.587523" lon="9.540027">
        <ele>287.783155</ele>
        <time>2025-03-13T10:00:23.144Z</time>
      </trkpt>
      <trkpt lat="50.587510" lon="9.539882">
        <ele>287.791532</ele>
        <time>2025-03-13T10:00:40.141Z</time>
      </trkpt>
      <trkpt lat="50.587548" lon="9.539743">
        <ele>287.800190</ele>
        <time>2025-03-13T10:00:46.148Z</time>
      </trkpt>
      <trkpt lat="50.587547" lon="9.539585">
        <ele>287.809229</ele>
        <time>2025-03-13T10:00:51.148Z</time>
      </trkpt>
      <trkpt lat="50.587548" lon="9.539438">
        <ele>287.817639</ele>
        <time>2025-03-13T10:00:57.149Z</time>
      </trkpt>
      <trkpt lat="50.587518" lon="9.539293">
        <ele>287.826364</ele>
        <time>2025-03-13T10:01:05.145Z</time>
      </trkpt>
      <trkpt lat="50.587485" lon="9.539153">
        <ele>287.834907</ele>
        <time>2025-03-13T10:01:18.149Z</time>
      </trkpt>
      <trkpt lat="50.587460" lon="9.538995">
        <ele>287.844222</ele>
        <time>2025-03-13T10:01:27.144Z</time>
      </trkpt>
      <trkpt lat="50.587440" lon="9.538850">
        <ele>287.852711</ele>
        <time>2025-03-13T10:01:34.140Z</time>
      </trkpt>
      <trkpt lat="50.587425" lon="9.538710">
        <ele>287.860833</ele>
        <time>2025-03-13T10:01:43.152Z</time>
      </trkpt>
      <trkpt lat="50.587417" lon="9.538567">
        <ele>287.869046</ele>
        <time>2025-03-13T10:01:58.145Z</time>
      </trkpt>
      <trkpt lat="50.587428" lon="9.538398">
        <ele>287.878765</ele>
        <time>2025-03-13T10:02:06.140Z</time>
      </trkpt>
      <trkpt lat="50.587420" lon="9.538257">
        <ele>287.965972</ele>
        <time>2025-03-13T10:02:13.151Z</time>
      </trkpt>
      <trkpt lat="50.587397" lon="9.538112">
        <ele>288.148911</ele>
        <time>2025-03-13T10:02:20.142Z</time>
      </trkpt>
      <trkpt lat="50.587373" lon="9.537973">
        <ele>288.325230</ele>
        <time>2025-03-13T10:02:26.138Z</time>
      </trkpt>
      <trkpt lat="50.587337" lon="9.537815">
        <ele>288.530704</ele>
        <time>2025-03-13T10:02:33.161Z</time>
      </trkpt>
      <trkpt lat="50.587310" lon="9.537677">
        <ele>288.707458</ele>
        <time>2025-03-13T10:02:39.152Z</time>
      </trkpt>
      <trkpt lat="50.587303" lon="9.537518">
        <ele>288.902547</ele>
        <time>2025-03-13T10:02:51.158Z</time>
      </trkpt>
      <trkpt lat="50.587278" lon="9.537372">
        <ele>289.087641</ele>
        <time>2025-03-13T10:02:57.156Z</time>
      </trkpt>
      <trkpt lat="50.587257" lon="9.537232">
        <ele>289.263723</ele>
        <time>2025-03-13T10:03:05.151Z</time>
      </trkpt>
      <trkpt lat="50.587237" lon="9.537088">
        <ele>289.444152</ele>
        <time>2025-03-13T10:03:15.147Z</time>
      </trkpt>
      <trkpt lat="50.587217" lon="9.536930">
        <ele>289.641355</ele>
        <time>2025-03-13T10:03:22.151Z</time>
      </trkpt>
      <trkpt lat="50.587198" lon="9.536783">
        <ele>289.824979</ele>
        <time>2025-03-13T10:03:30.153Z</time>
      </trkpt>
      <trkpt lat="50.587168" lon="9.536628">
        <ele>290.023324</ele>
        <time>2025-03-13T10:03:41.148Z</time>
      </trkpt>
      <trkpt lat="50.587142" lon="9.536468">
        <ele>290.225483</ele>
        <time>2025-03-13T10:03:51.157Z</time>
      </trkpt>
      <trkpt lat="50.587115" lon="9.536325">
        <ele>290.408096</ele>
        <time>2025-03-13T10:03:58.140Z</time>
      </trkpt>
      <trkpt lat="50.587087" lon="9.536180">
        <ele>290.593609</ele>
        <time>2025-03-13T10:04:06.153Z</time>
      </trkpt>
      <trkpt lat="50.587060" lon="9.535977">
        <ele>290.847482</ele>
        <time>2025-03-13T10:04:09.153Z</time>
      </trkpt>
      <trkpt lat="50.587030" lon="9.535838">
        <ele>291.027185</ele>
        <time>2025-03-13T10:04:18.152Z</time>
      </trkpt>
      <trkpt lat="50.587017" lon="9.535692">
        <ele>291.207643</ele>
        <time>2025-03-13T10:04:33.157Z</time>
      </trkpt>
      <trkpt lat="50.586995" lon="9.535540">
        <ele>291.315667</ele>
        <time>2025-03-13T10:04:41.144Z</time>
      </trkpt>
      <trkpt lat="50.586972" lon="9.535402">
        <ele>291.188222</ele>
        <time>2025-03-13T10:04:49.151Z</time>
      </trkpt>
      <trkpt lat="50.586940" lon="9.535257">
        <ele>291.051098</ele>
        <time>2025-03-13T10:05:00.149Z</time>
      </trkpt>
      <trkpt lat="50.586918" lon="9.535115">
        <ele>290.920535</ele>
        <time>2025-03-13T10:05:09.151Z</time>
      </trkpt>
      <trkpt lat="50.586890" lon="9.534953">
        <ele>290.770561</ele>
        <time>2025-03-13T10:05:17.152Z</time>
      </trkpt>
      <trkpt lat="50.586877" lon="9.534803">
        <ele>290.635330</ele>
        <time>2025-03-13T10:05:28.156Z</time>
      </trkpt>
      <trkpt lat="50.586843" lon="9.534663">
        <ele>290.501438</ele>
        <time>2025-03-13T10:05:38.150Z</time>
      </trkpt>
      <trkpt lat="50.586828" lon="9.534522">
        <ele>290.373734</ele>
        <time>2025-03-13T10:05:46.140Z</time>
      </trkpt>
      <trkpt lat="50.586790" lon="9.534393">
        <ele>290.246705</ele>
        <time>2025-03-13T10:05:54.152Z</time>
      </trkpt>
      <trkpt lat="50.586768" lon="9.534243">
        <ele>290.109188</ele>
        <time>2025-03-13T10:06:01.168Z</time>
      </trkpt>
      <trkpt lat="50.586758" lon="9.534092">
        <ele>289.973575</ele>
        <time>2025-03-13T10:06:14.149Z</time>
      </trkpt>
      <trkpt lat="50.586823" lon="9.533942">
        <ele>289.811353</ele>
        <time>2025-03-13T10:06:24.158Z</time>
      </trkpt>
      <trkpt lat="50.586785" lon="9.533778">
        <ele>289.655409</ele>
        <time>2025-03-13T10:06:30.150Z</time>
      </trkpt>
      <trkpt lat="50.586722" lon="9.533648">
        <ele>289.509324</ele>
        <time>2025-03-13T10:06:37.149Z</time>
      </trkpt>
      <trkpt lat="50.586662" lon="9.533530">
        <ele>289.374283</ele>
        <time>2025-03-13T10:06:46.147Z</time>
      </trkpt>
      <trkpt lat="50.586633" lon="9.533370">
        <ele>289.225652</ele>
        <time>2025-03-13T10:06:52.154Z</time>
      </trkpt>
      <trkpt lat="50.586600" lon="9.533217">
        <ele>289.081313</ele>
        <time>2025-03-13T10:07:02.143Z</time>
      </trkpt>
      <trkpt lat="50.586563" lon="9.533073">
        <ele>288.942549</ele>
        <time>2025-03-13T10:07:09.136Z</time>
      </trkpt>
      <trkpt lat="50.586568" lon="9.532927">
        <ele>288.819358</ele>
        <time>2025-03-13T10:07:14.160Z</time>
      </trkpt>
      <trkpt lat="50.586603" lon="9.532787">
        <ele>288.807431</ele>
        <time>2025-03-13T10:07:22.150Z</time>
      </trkpt>
      <trkpt lat="50.586628" lon="9.532647">
        <ele>288.795903</ele>
        <time>2025-03-13T10:07:32.153Z</time>
      </trkpt>
      <trkpt lat="50.586700" lon="9.532533">
        <ele>288.783157</ele>
        <time>2025-03-13T10:07:40.154Z</time>
      </trkpt>
      <trkpt lat="50.586755" lon="9.532405">
        <ele>288.770906</ele>
        <time>2025-03-13T10:07:46.139Z</time>
      </trkpt>
      <trkpt lat="50.586822" lon="9.532307">
        <ele>288.759491</ele>
        <time>2025-03-13T10:07:53.144Z</time>
      </trkpt>
      <trkpt lat="50.586877" lon="9.532185">
        <ele>288.747631</ele>
        <time>2025-03-13T10:08:01.140Z</time>
      </trkpt>
      <trkpt lat="50.586925" lon="9.532065">
        <ele>288.736389</ele>
        <time>2025-03-13T10:08:14.159Z</time>
      </trkpt>
      <trkpt lat="50.586978" lon="9.531942">
        <ele>288.724606</ele>
        <time>2025-03-13T10:08:23.158Z</time>
      </trkpt>
      <trkpt lat="50.587015" lon="9.531812">
        <ele>288.713313</ele>
        <time>2025-03-13T10:08:33.141Z</time>
      </trkpt>
      <trkpt lat="50.587105" lon="9.531740">
        <ele>288.700711</ele>
        <time>2025-03-13T10:08:43.157Z</time>
      </trkpt>
      <trkpt lat="50.587147" lon="9.531613">
        <ele>288.689360</ele>
        <time>2025-03-13T10:08:49.152Z</time>
      </trkpt>
      <trkpt lat="50.587193" lon="9.531475">
        <ele>288.677006</ele>
        <time>2025-03-13T10:08:55.156Z</time>
      </trkpt>
      <trkpt lat="50.587225" lon="9.531312">
        <ele>288.663482</ele>
        <time>2025-03-13T10:09:03.150Z</time>
      </trkpt>
      <trkpt lat="50.587285" lon="9.531198">
        <ele>288.651745</ele>
        <time>2025-03-13T10:09:10.148Z</time>
      </trkpt>
      <trkpt lat="50.587337" lon="9.531070">
        <ele>288.639700</ele>
        <time>2025-03-13T10:09:19.160Z</time>
      </trkpt>
      <trkpt lat="50.587317" lon="9.530907">
        <ele>288.626541</ele>
        <time>2025-03-13T10:09:39.141Z</time>
      </trkpt>
      <trkpt lat="50.587235" lon="9.530798">
        <ele>288.613145</ele>
        <time>2025-03-13T10:10:00.141Z</time>
      </trkpt>
      <trkpt lat="50.587182" lon="9.530660">
        <ele>288.600361</ele>
        <time>2025-03-13T10:10:05.152Z</time>
      </trkpt>
      <trkpt lat="50.587112" lon="9.530522">
        <ele>289.269209</ele>
        <time>2025-03-13T10:10:11.146Z</time>
      </trkpt>
      <trkpt lat="50.587080" lon="9.530357">
        <ele>290.274183</ele>
        <time>2025-03-13T10:10:15.142Z</time>
      </trkpt>
      <trkpt lat="50.587010" lon="9.530230">
        <ele>291.253843</ele>
        <time>2025-03-13T10:10:21.143Z</time>
      </trkpt>
      <trkpt lat="50.586938" lon="9.530130">
        <ele>292.134568</ele>
        <time>2025-03-13T10:10:29.148Z</time>
      </trkpt>
      <trkpt lat="50.586895" lon="9.530005">
        <ele>292.962709</ele>
        <time>2025-03-13T10:10:35.143Z</time>
      </trkpt>
      <trkpt lat="50.586838" lon="9.529887">
        <ele>293.826391</ele>
        <time>2025-03-13T10:10:44.163Z</time>
      </trkpt>
      <trkpt lat="50.586855" lon="9.529725">
        <ele>294.782856</ele>
        <time>2025-03-13T10:10:51.153Z</time>
      </trkpt>
      <trkpt lat="50.586890" lon="9.529563">
        <ele>295.779658</ele>
        <time>2025-03-13T10:11:01.150Z</time>
      </trkpt>
      <trkpt lat="50.586960" lon="9.529468">
        <ele>296.627412</ele>
        <time>2025-03-13T10:11:10.148Z</time>
      </trkpt>
      <trkpt lat="50.587012" lon="9.529330">
        <ele>297.562184</ele>
        <time>2025-03-13T10:11:19.149Z</time>
      </trkpt>
      <trkpt lat="50.587018" lon="9.529185">
        <ele>298.408609</ele>
        <time>2025-03-13T10:11:26.150Z</time>
      </trkpt>
      <trkpt lat="50.587057" lon="9.529047">
        <ele>299.288505</ele>
        <time>2025-03-13T10:11:34.142Z</time>
      </trkpt>
      <trkpt lat="50.587095" lon="9.528908">
        <ele>300.170057</ele>
        <time>2025-03-13T10:11:42.158Z</time>
      </trkpt>
      <trkpt lat="50.587157" lon="9.528803">
        <ele>301.005317</ele>
        <time>2025-03-13T10:11:55.144Z</time>
      </trkpt>
      <trkpt lat="50.587192" lon="9.528668">
        <ele>301.854733</ele>
        <time>2025-03-13T10:12:04.155Z</time>
      </trkpt>
      <trkpt lat="50.587233" lon="9.528538">
        <ele>302.700270</ele>
        <time>2025-03-13T10:12:16.151Z</time>
      </trkpt>
      <trkpt lat="50.587305" lon="9.528418">
        <ele>303.662023</ele>
        <time>2025-03-13T10:12:32.148Z</time>
      </trkpt>
      <trkpt lat="50.587348" lon="9.528285">
        <ele>304.531415</ele>
        <time>2025-03-13T10:12:40.141Z</time>
      </trkpt>
      <trkpt lat="50.587422" lon="9.528192">
        <ele>305.202338</ele>
        <time>2025-03-13T10:12:51.146Z</time>
      </trkpt>
      <trkpt lat="50.587483" lon="9.528073">
        <ele>305.511098</ele>
        <time>2025-03-13T10:12:59.145Z</time>
      </trkpt>
      <trkpt lat="50.587550" lon="9.527962">
        <ele>305.820287</ele>
        <time>2025-03-13T10:13:06.147Z</time>
      </trkpt>
      <trkpt lat="50.587608" lon="9.527843">
        <ele>306.123145</ele>
        <time>2025-03-13T10:13:14.153Z</time>
      </trkpt>
      <trkpt lat="50.587680" lon="9.527740">
        <ele>306.432414</ele>
        <time>2025-03-13T10:13:22.158Z</time>
      </trkpt>
      <trkpt lat="50.587750" lon="9.527642">
        <ele>306.730207</ele>
        <time>2025-03-13T10:13:32.159Z</time>
      </trkpt>
      <trkpt lat="50.587822" lon="9.527523">
        <ele>307.062055</ele>
        <time>2025-03-13T10:13:42.156Z</time>
      </trkpt>
      <trkpt lat="50.587905" lon="9.527433">
        <ele>307.382461</ele>
        <time>2025-03-13T10:13:51.150Z</time>
      </trkpt>
      <trkpt lat="50.587980" lon="9.527343">
        <ele>307.682262</ele>
        <time>2025-03-13T10:13:57.164Z</time>
      </trkpt>
      <trkpt lat="50.588065" lon="9.527285">
        <ele>307.976806</ele>
        <time>2025-03-13T10:14:09.146Z</time>
      </trkpt>
      <trkpt lat="50.588130" lon="9.527180">
        <ele>308.272857</ele>
        <time>2025-03-13T10:14:19.169Z</time>
      </trkpt>
      <trkpt lat="50.588213" lon="9.527098">
        <ele>308.584388</ele>
        <time>2025-03-13T10:14:28.149Z</time>
      </trkpt>
      <trkpt lat="50.588283" lon="9.527202">
        <ele>308.890360</ele>
        <time>2025-03-13T10:14:42.143Z</time>
      </trkpt>
      <trkpt lat="50.588345" lon="9.527335">
        <ele>309.223454</ele>
        <time>2025-03-13T10:14:50.141Z</time>
      </trkpt>
      <trkpt lat="50.588402" lon="9.527447">
        <ele>309.513227</ele>
        <time>2025-03-13T10:14:57.147Z</time>
      </trkpt>
      <trkpt lat="50.588450" lon="9.527587">
        <ele>309.834427</ele>
        <time>2025-03-13T10:15:06.142Z</time>
      </trkpt>
      <trkpt lat="50.588513" lon="9.527702">
        <ele>310.141058</ele>
        <time>2025-03-13T10:15:15.153Z</time>
      </trkpt>
      <trkpt lat="50.588592" lon="9.527780">
        <ele>310.437524</ele>
        <time>2025-03-13T10:15:22.159Z</time>
      </trkpt>
      <trkpt lat="50.588637" lon="9.527907">
        <ele>310.731127</ele>
        <time>2025-03-13T10:15:39.132Z</time>
      </trkpt>
      <trkpt lat="50.588698" lon="9.528015">
        <ele>311.158267</ele>
        <time>2025-03-13T10:15:50.143Z</time>
      </trkpt>
      <trkpt lat="50.588753" lon="9.528145">
        <ele>311.680462</ele>
        <time>2025-03-13T10:16:01.173Z</time>
      </trkpt>
      <trkpt lat="50.588818" lon="9.528252">
        <ele>312.175483</ele>
        <time>2025-03-13T10:16:09.163Z</time>
      </trkpt>
      <trkpt lat="50.588890" lon="9.528340">
        <ele>312.655307</ele>
        <time>2025-03-13T10:16:16.174Z</time>
      </trkpt>
      <trkpt lat="50.588967" lon="9.528422">
        <ele>313.144680</ele>
        <time>2025-03-13T10:16:24.152Z</time>
      </trkpt>
      <trkpt lat="50.589032" lon="9.528533">
        <ele>313.649445</ele>
        <time>2025-03-13T10:16:32.172Z</time>
      </trkpt>
      <trkpt lat="50.589097" lon="9.528645">
        <ele>314.156671</ele>
        <time>2025-03-13T10:16:39.172Z</time>
      </trkpt>
      <trkpt lat="50.589153" lon="9.528757">
        <ele>314.633211</ele>
        <time>2025-03-13T10:16:48.163Z</time>
      </trkpt>
      <trkpt lat="50.589213" lon="9.528868">
        <ele>315.120510</ele>
        <time>2025-03-13T10:16:57.172Z</time>
      </trkpt>
      <trkpt lat="50.589288" lon="9.528948">
        <ele>315.597415</ele>
        <time>2025-03-13T10:17:05.166Z</time>
      </trkpt>
      <trkpt lat="50.589380" lon="9.528948">
        <ele>316.081799</ele>
        <time>2025-03-13T10:17:12.175Z</time>
      </trkpt>
      <trkpt lat="50.589472" lon="9.528897">
        <ele>316.595305</ele>
        <time>2025-03-13T10:17:20.161Z</time>
      </trkpt>
      <trkpt lat="50.589558" lon="9.528833">
        <ele>317.096092</ele>
        <time>2025-03-13T10:17:30.169Z</time>
      </trkpt>
      <trkpt lat="50.589650" lon="9.528805">
        <ele>317.589435</ele>
        <time>2025-03-13T10:17:41.163Z</time>
      </trkpt>
      <trkpt lat="50.589743" lon="9.528745">
        <ele>318.118566</ele>
        <time>2025-03-13T10:17:50.164Z</time>
      </trkpt>
      <trkpt lat="50.589837" lon="9.528718">
        <ele>318.621641</ele>
        <time>2025-03-13T10:18:00.171Z</time>
      </trkpt>
      <trkpt lat="50.589927" lon="9.528673">
        <ele>319.118796</ele>
        <time>2025-03-13T10:18:09.164Z</time>
      </trkpt>
      <trkpt lat="50.590018" lon="9.528613">
        <ele>319.638197</ele>
        <time>2025-03-13T10:18:18.173Z</time>
      </trkpt>
      <trkpt lat="50.590113" lon="9.528583">
        <ele>320.148329</ele>
        <time>2025-03-13T10:18:28.175Z</time>
      </trkpt>
      <trkpt lat="50.590207" lon="9.528538">
        <ele>320.849331</ele>
        <time>2025-03-13T10:18:37.173Z</time>
      </trkpt>
      <trkpt lat="50.590292" lon="9.528485">
        <ele>321.563944</ele>
        <time>2025-03-13T10:18:50.175Z</time>
      </trkpt>
      <trkpt lat="50.590380" lon="9.528430">
        <ele>322.304015</ele>
        <time>2025-03-13T10:18:59.172Z</time>
      </trkpt>
      <trkpt lat="50.590478" lon="9.528370">
        <ele>323.125917</ele>
        <time>2025-03-13T10:19:08.166Z</time>
      </trkpt>
      <trkpt lat="50.590577" lon="9.528337">
        <ele>323.916941</ele>
        <time>2025-03-13T10:19:19.172Z</time>
      </trkpt>
      <trkpt lat="50.590675" lon="9.528300">
        <ele>324.704708</ele>
        <time>2025-03-13T10:19:30.173Z</time>
      </trkpt>
      <trkpt lat="50.590772" lon="9.528253">
        <ele>325.498023</ele>
        <time>2025-03-13T10:19:37.175Z</time>
      </trkpt>
      <trkpt lat="50.590865" lon="9.528213">
        <ele>326.251620</ele>
        <time>2025-03-13T10:19:49.173Z</time>
      </trkpt>
      <trkpt lat="50.590958" lon="9.528175">
        <ele>327.002665</ele>
        <time>2025-03-13T10:20:09.172Z</time>
      </trkpt>
      <trkpt lat="50.591032" lon="9.528078">
        <ele>327.755220</ele>
        <time>2025-03-13T10:20:18.164Z</time>
      </trkpt>
      <trkpt lat="50.591015" lon="9.527930">
        <ele>328.501617</ele>
        <time>2025-03-13T10:20:32.164Z</time>
      </trkpt>
      <trkpt lat="50.590972" lon="9.527787">
        <ele>329.286857</ele>
        <time>2025-03-13T10:20:42.170Z</time>
      </trkpt>
      <trkpt lat="50.590935" lon="9.527650">
        <ele>330.025704</ele>
        <time>2025-03-13T10:20:51.170Z</time>
      </trkpt>
      <trkpt lat="50.590905" lon="9.527510">
        <ele>330.758987</ele>
        <time>2025-03-13T10:21:01.175Z</time>
      </trkpt>
      <trkpt lat="50.590870" lon="9.527372">
        <ele>331.496463</ele>
        <time>2025-03-13T10:21:12.174Z</time>
      </trkpt>
      <trkpt lat="50.590832" lon="9.527223">
        <ele>332.293335</ele>
        <time>2025-03-13T10:21:21.172Z</time>
      </trkpt>
      <trkpt lat="50.590780" lon="9.527097">
        <ele>333.039141</ele>
        <time>2025-03-13T10:21:31.177Z</time>
      </trkpt>
      <trkpt lat="50.590738" lon="9.526958">
        <ele>333.803099</ele>
        <time>2025-03-13T10:21:39.174Z</time>
      </trkpt>
      <trkpt lat="50.590692" lon="9.526833">
        <ele>334.492616</ele>
        <time>2025-03-13T10:21:49.175Z</time>
      </trkpt>
      <trkpt lat="50.590658" lon="9.526690">
        <ele>335.130334</ele>
        <time>2025-03-13T10:22:00.174Z</time>
      </trkpt>
      <trkpt lat="50.590602" lon="9.526570">
        <ele>335.752319</ele>
        <time>2025-03-13T10:22:11.171Z</time>
      </trkpt>
      <trkpt lat="50.590563" lon="9.526433">
        <ele>336.379359</ele>
        <time>2025-03-13T10:22:21.174Z</time>
      </trkpt>
      <trkpt lat="50.590525" lon="9.526293">
        <ele>337.015237</ele>
        <time>2025-03-13T10:22:31.172Z</time>
      </trkpt>
      <trkpt lat="50.590487" lon="9.526113">
        <ele>337.807446</ele>
        <time>2025-03-13T10:23:15.176Z</time>
      </trkpt>
      <trkpt lat="50.590437" lon="9.525982">
        <ele>338.445803</ele>
        <time>2025-03-13T10:23:26.176Z</time>
      </trkpt>
      <trkpt lat="50.590388" lon="9.525862">
        <ele>339.041673</ele>
        <time>2025-03-13T10:23:36.174Z</time>
      </trkpt>
      <trkpt lat="50.590333" lon="9.525737">
        <ele>339.676835</ele>
        <time>2025-03-13T10:23:54.172Z</time>
      </trkpt>
      <trkpt lat="50.590295" lon="9.525605">
        <ele>340.282138</ele>
        <time>2025-03-13T10:24:03.174Z</time>
      </trkpt>
      <trkpt lat="50.590253" lon="9.525472">
        <ele>340.902511</ele>
        <time>2025-03-13T10:24:12.168Z</time>
      </trkpt>
      <trkpt lat="50.590202" lon="9.525340">
        <ele>341.547849</ele>
        <time>2025-03-13T10:24:22.174Z</time>
      </trkpt>
      <trkpt lat="50.590162" lon="9.525202">
        <ele>342.181411</ele>
        <time>2025-03-13T10:24:32.175Z</time>
      </trkpt>
      <trkpt lat="50.590115" lon="9.525072">
        <ele>342.806198</ele>
        <time>2025-03-13T10:24:43.169Z</time>
      </trkpt>
      <trkpt lat="50.590087" lon="9.524932">
        <ele>343.419213</ele>
        <time>2025-03-13T10:24:52.169Z</time>
      </trkpt>
      <trkpt lat="50.590048" lon="9.524798">
        <ele>344.034848</ele>
        <time>2025-03-13T10:25:01.174Z</time>
      </trkpt>
      <trkpt lat="50.589995" lon="9.524682">
        <ele>344.631720</ele>
        <time>2025-03-13T10:25:08.174Z</time>
      </trkpt>
      <trkpt lat="50.589968" lon="9.524545">
        <ele>345.230814</ele>
        <time>2025-03-13T10:25:17.173Z</time>
      </trkpt>
      <trkpt lat="50.589948" lon="9.524405">
        <ele>345.830124</ele>
        <time>2025-03-13T10:25:27.175Z</time>
      </trkpt>
      <trkpt lat="50.589997" lon="9.524282">
        <ele>346.695069</ele>
        <time>2025-03-13T10:25:40.174Z</time>
      </trkpt>
      <trkpt lat="50.590083" lon="9.524390">
        <ele>348.143665</ele>
        <time>2025-03-13T10:25:49.169Z</time>
      </trkpt>
      <trkpt lat="50.590148" lon="9.524493">
        <ele>349.358002</ele>
        <time>2025-03-13T10:26:03.177Z</time>
      </trkpt>
      <trkpt lat="50.590222" lon="9.524582">
        <ele>350.584250</ele>
        <time>2025-03-13T10:26:11.138Z</time>
      </trkpt>
      <trkpt lat="50.590253" lon="9.524722">
        <ele>351.824019</ele>
        <time>2025-03-13T10:26:23.173Z</time>
      </trkpt>
      <trkpt lat="50.590303" lon="9.524858">
        <ele>353.138097</ele>
        <time>2025-03-13T10:26:33.176Z</time>
      </trkpt>
      <trkpt lat="50.590357" lon="9.524983">
        <ele>354.402309</ele>
        <time>2025-03-13T10:26:43.169Z</time>
      </trkpt>
      <trkpt lat="50.590452" lon="9.525043">
        <ele>355.750346</ele>
        <time>2025-03-13T10:26:54.175Z</time>
      </trkpt>
      <trkpt lat="50.590543" lon="9.525063">
        <ele>356.960479</ele>
        <time>2025-03-13T10:27:04.167Z</time>
      </trkpt>
      <trkpt lat="50.590557" lon="9.524917">
        <ele>358.195096</ele>
        <time>2025-03-13T10:27:30.173Z</time>
      </trkpt>
      <trkpt lat="50.590517" lon="9.524732">
        <ele>359.829214</ele>
        <time>2025-03-13T10:29:02.175Z</time>
      </trkpt>
      <trkpt lat="50.590490" lon="9.524587">
        <ele>361.092699</ele>
        <time>2025-03-13T10:29:13.168Z</time>
      </trkpt>
      <trkpt lat="50.590468" lon="9.524447">
        <ele>362.298631</ele>
        <time>2025-03-13T10:29:27.175Z</time>
      </trkpt>
      <trkpt lat="50.590455" lon="9.524300">
        <ele>363.539633</ele>
        <time>2025-03-13T10:29:36.163Z</time>
      </trkpt>
      <trkpt lat="50.590450" lon="9.524155">
        <ele>364.753832</ele>
        <time>2025-03-13T10:29:53.172Z</time>
      </trkpt>
      <trkpt lat="50.590418" lon="9.524008">
        <ele>366.053217</ele>
        <time>2025-03-13T10:30:02.173Z</time>
      </trkpt>
      <trkpt lat="50.590400" lon="9.523867">
        <ele>367.255783</ele>
        <time>2025-03-13T10:30:14.173Z</time>
      </trkpt>
      <trkpt lat="50.590373" lon="9.523730">
        <ele>368.455231</ele>
        <time>2025-03-13T10:30:28.175Z</time>
      </trkpt>
      <trkpt lat="50.590372" lon="9.523575">
        <ele>369.751327</ele>
        <time>2025-03-13T10:30:40.175Z</time>
      </trkpt>
      <trkpt lat="50.590323" lon="9.523435">
        <ele>370.768216</ele>
        <time>2025-03-13T10:30:51.135Z</time>
      </trkpt>
      <trkpt lat="50.590273" lon="9.523298">
        <ele>371.743220</ele>
        <time>2025-03-13T10:30:59.168Z</time>
      </trkpt>
      <trkpt lat="50.590278" lon="9.523155">
        <ele>372.626861</ele>
        <time>2025-03-13T10:31:51.138Z</time>
      </trkpt>
      <trkpt lat="50.590262" lon="9.523012">
        <ele>373.522764</ele>
        <time>2025-03-13T10:32:04.170Z</time>
      </trkpt>
      <trkpt lat="50.590242" lon="9.522870">
        <ele>374.420200</ele>
        <time>2025-03-13T10:32:18.162Z</time>
      </trkpt>
      <trkpt lat="50.590222" lon="9.522725">
        <ele>375.335717</ele>
        <time>2025-03-13T10:32:47.173Z</time>
      </trkpt>
      <trkpt lat="50.590243" lon="9.522580">
        <ele>376.253346</ele>
        <time>2025-03-13T10:33:01.170Z</time>
      </trkpt>
      <trkpt lat="50.590218" lon="9.522433">
        <ele>377.192310</ele>
        <time>2025-03-13T10:33:12.171Z</time>
      </trkpt>
      <trkpt lat="50.590205" lon="9.522288">
        <ele>378.095833</ele>
        <time>2025-03-13T10:33:23.169Z</time>
      </trkpt>
      <trkpt lat="50.590198" lon="9.522143">
        <ele>378.993061</ele>
        <time>2025-03-13T10:35:12.167Z</time>
      </trkpt>
      <trkpt lat="50.590165" lon="9.522012">
        <ele>379.862631</ele>
        <time>2025-03-13T10:35:32.172Z</time>
      </trkpt>
      <trkpt lat="50.590153" lon="9.521867">
        <ele>380.764847</ele>
        <time>2025-03-13T10:35:40.173Z</time>
      </trkpt>
      <trkpt lat="50.590132" lon="9.521720">
        <ele>381.694513</ele>
        <time>2025-03-13T10:35:56.174Z</time>
      </trkpt>
      <trkpt lat="50.590102" lon="9.521583">
        <ele>382.588670</ele>
        <time>2025-03-13T10:36:06.139Z</time>
      </trkpt>
      <trkpt lat="50.590073" lon="9.521447">
        <ele>383.473855</ele>
        <time>2025-03-13T10:36:17.190Z</time>
      </trkpt>
      <trkpt lat="50.590047" lon="9.521302">
        <ele>384.403502</ele>
        <time>2025-03-13T10:36:26.140Z</time>
      </trkpt>
      <trkpt lat="50.590063" lon="9.521158">
        <ele>385.305485</ele>
        <time>2025-03-13T10:36:35.167Z</time>
      </trkpt>
      <trkpt lat="50.590052" lon="9.521012">
        <ele>386.212625</ele>
        <time>2025-03-13T10:36:47.166Z</time>
      </trkpt>
      <trkpt lat="50.590022" lon="9.520875">
        <ele>387.106784</ele>
        <time>2025-03-13T10:36:55.164Z</time>
      </trkpt>
      <trkpt lat="50.590040" lon="9.520647">
        <ele>388.398009</ele>
        <time>2025-03-13T10:37:29.160Z</time>
      </trkpt>
      <trkpt lat="50.590063" lon="9.520507">
        <ele>389.194409</ele>
        <time>2025-03-13T10:37:46.141Z</time>
      </trkpt>
      <trkpt lat="50.590000" lon="9.520380">
        <ele>390.082009</ele>
        <time>2025-03-13T10:37:55.159Z</time>
      </trkpt>
      <trkpt lat="50.589972" lon="9.520237">
        <ele>390.906139</ele>
        <time>2025-03-13T10:38:06.140Z</time>
      </trkpt>
      <trkpt lat="50.589967" lon="9.520078">
        <ele>391.782854</ele>
        <time>2025-03-13T10:38:16.161Z</time>
      </trkpt>
      <trkpt lat="50.589942" lon="9.519940">
        <ele>392.573180</ele>
        <time>2025-03-13T10:38:26.139Z</time>
      </trkpt>
      <trkpt lat="50.589955" lon="9.519787">
        <ele>393.423291</ele>
        <time>2025-03-13T10:38:37.167Z</time>
      </trkpt>
      <trkpt lat="50.589957" lon="9.519640">
        <ele>394.233032</ele>
        <time>2025-03-13T10:38:47.169Z</time>
      </trkpt>
      <trkpt lat="50.589955" lon="9.519498">
        <ele>395.015243</ele>
        <time>2025-03-13T10:38:57.159Z</time>
      </trkpt>
      <trkpt lat="50.589962" lon="9.519357">
        <ele>395.794126</ele>
        <time>2025-03-13T10:39:09.154Z</time>
      </trkpt>
      <trkpt lat="50.589977" lon="9.519215">
        <ele>396.586896</ele>
        <time>2025-03-13T10:39:23.163Z</time>
      </trkpt>
      <trkpt lat="50.589997" lon="9.519070">
        <ele>397.404065</ele>
        <time>2025-03-13T10:39:32.164Z</time>
      </trkpt>
      <trkpt lat="50.589968" lon="9.518932">
        <ele>398.204608</ele>
        <time>2025-03-13T10:39:43.156Z</time>
      </trkpt>
      <trkpt lat="50.589957" lon="9.518785">
        <ele>399.019767</ele>
        <time>2025-03-13T10:39:53.158Z</time>
      </trkpt>
      <trkpt lat="50.589955" lon="9.518632">
        <ele>399.862543</ele>
        <time>2025-03-13T10:40:07.163Z</time>
      </trkpt>
      <trkpt lat="50.589973" lon="9.518490">
        <ele>400.659998</ele>
        <time>2025-03-13T10:40:16.162Z</time>
      </trkpt>
      <trkpt lat="50.590013" lon="9.518360">
        <ele>401.455583</ele>
        <time>2025-03-13T10:40:27.166Z</time>
      </trkpt>
      <trkpt lat="50.589962" lon="9.518243">
        <ele>402.237180</ele>
        <time>2025-03-13T10:42:05.158Z</time>
      </trkpt>
      <trkpt lat="50.590062" lon="9.518287">
        <ele>402.792548</ele>
        <time>2025-03-13T10:42:12.154Z</time>
      </trkpt>
      <trkpt lat="50.590030" lon="9.518142">
        <ele>402.079869</ele>
        <time>2025-03-13T10:42:52.153Z</time>
      </trkpt>
      <trkpt lat="50.589993" lon="9.518007">
        <ele>401.397218</ele>
        <time>2025-03-13T10:43:02.163Z</time>
      </trkpt>
      <trkpt lat="50.590065" lon="9.517918">
        <ele>400.727939</ele>
        <time>2025-03-13T10:43:23.158Z</time>
      </trkpt>
      <trkpt lat="50.590043" lon="9.517778">
        <ele>400.058371</ele>
        <time>2025-03-13T10:43:30.167Z</time>
      </trkpt>
      <trkpt lat="50.590127" lon="9.517703">
        <ele>399.352288</ele>
        <time>2025-03-13T10:43:41.150Z</time>
      </trkpt>
      <trkpt lat="50.590133" lon="9.517558">
        <ele>398.677694</ele>
        <time>2025-03-13T10:43:54.158Z</time>
      </trkpt>
      <trkpt lat="50.590170" lon="9.517428">
        <ele>398.016293</ele>
        <time>2025-03-13T10:44:08.159Z</time>
      </trkpt>
      <trkpt lat="50.590207" lon="9.517288">
        <ele>397.312273</ele>
        <time>2025-03-13T10:44:22.150Z</time>
      </trkpt>
      <trkpt lat="50.590257" lon="9.517155">
        <ele>396.594682</ele>
        <time>2025-03-13T10:44:29.158Z</time>
      </trkpt>
      <trkpt lat="50.590285" lon="9.517008">
        <ele>395.882180</ele>
        <time>2025-03-13T10:44:37.162Z</time>
      </trkpt>
      <trkpt lat="50.590325" lon="9.516880">
        <ele>395.219850</ele>
        <time>2025-03-13T10:44:49.155Z</time>
      </trkpt>
      <trkpt lat="50.590335" lon="9.516737">
        <ele>394.551957</ele>
        <time>2025-03-13T10:44:57.164Z</time>
      </trkpt>
      <trkpt lat="50.590388" lon="9.516618">
        <ele>393.877109</ele>
        <time>2025-03-13T10:45:06.165Z</time>
      </trkpt>
      <trkpt lat="50.590472" lon="9.516677">
        <ele>393.204546</ele>
        <time>2025-03-13T10:45:15.162Z</time>
      </trkpt>
      <trkpt lat="50.590533" lon="9.516782">
        <ele>392.543791</ele>
        <time>2025-03-13T10:45:23.162Z</time>
      </trkpt>
      <trkpt lat="50.590615" lon="9.516842">
        <ele>391.882617</ele>
        <time>2025-03-13T10:45:31.152Z</time>
      </trkpt>
      <trkpt lat="50.590712" lon="9.516905">
        <ele>391.115359</ele>
        <time>2025-03-13T10:45:43.158Z</time>
      </trkpt>
      <trkpt lat="50.590802" lon="9.516950">
        <ele>390.424861</ele>
        <time>2025-03-13T10:45:49.158Z</time>
      </trkpt>
      <trkpt lat="50.590875" lon="9.517047">
        <ele>389.674221</ele>
        <time>2025-03-13T10:45:58.154Z</time>
      </trkpt>
      <trkpt lat="50.590960" lon="9.517095">
        <ele>388.529432</ele>
        <time>2025-03-13T10:46:10.147Z</time>
      </trkpt>
      <trkpt lat="50.591052" lon="9.517053">
        <ele>387.315057</ele>
        <time>2025-03-13T10:46:19.157Z</time>
      </trkpt>
      <trkpt lat="50.591138" lon="9.516983">
        <ele>386.087784</ele>
        <time>2025-03-13T10:47:05.151Z</time>
      </trkpt>
      <trkpt lat="50.591187" lon="9.516857">
        <ele>384.898511</ele>
        <time>2025-03-13T10:47:15.158Z</time>
      </trkpt>
      <trkpt lat="50.591240" lon="9.516728">
        <ele>383.661781</ele>
        <time>2025-03-13T10:47:26.156Z</time>
      </trkpt>
      <trkpt lat="50.591252" lon="9.516577">
        <ele>382.436955</ele>
        <time>2025-03-13T10:47:32.167Z</time>
      </trkpt>
      <trkpt lat="50.591312" lon="9.516450">
        <ele>381.162800</ele>
        <time>2025-03-13T10:47:44.158Z</time>
      </trkpt>
      <trkpt lat="50.591368" lon="9.516327">
        <ele>379.944559</ele>
        <time>2025-03-13T10:48:00.156Z</time>
      </trkpt>
      <trkpt lat="50.591425" lon="9.516213">
        <ele>378.776614</ele>
        <time>2025-03-13T10:48:13.158Z</time>
      </trkpt>
      <trkpt lat="50.591447" lon="9.516065">
        <ele>377.553206</ele>
        <time>2025-03-13T10:48:22.150Z</time>
      </trkpt>
      <trkpt lat="50.591488" lon="9.515935">
        <ele>376.384890</ele>
        <time>2025-03-13T10:48:33.163Z</time>
      </trkpt>
      <trkpt lat="50.591533" lon="9.515798">
        <ele>375.143388</ele>
        <time>2025-03-13T10:48:42.155Z</time>
      </trkpt>
      <trkpt lat="50.591577" lon="9.515658">
        <ele>373.886069</ele>
        <time>2025-03-13T10:48:54.157Z</time>
      </trkpt>
      <trkpt lat="50.591552" lon="9.515508">
        <ele>372.637874</ele>
        <time>2025-03-13T10:49:04.150Z</time>
      </trkpt>
      <trkpt lat="50.591463" lon="9.515437">
        <ele>371.373078</ele>
        <time>2025-03-13T10:49:13.157Z</time>
      </trkpt>
      <trkpt lat="50.591410" lon="9.515317">
        <ele>370.196505</ele>
        <time>2025-03-13T10:49:21.151Z</time>
      </trkpt>
      <trkpt lat="50.591357" lon="9.515177">
        <ele>368.884568</ele>
        <time>2025-03-13T10:49:29.156Z</time>
      </trkpt>
      <trkpt lat="50.591305" lon="9.515057">
        <ele>367.715188</ele>
        <time>2025-03-13T10:49:37.151Z</time>
      </trkpt>
      <trkpt lat="50.591218" lon="9.514977">
        <ele>366.861768</ele>
        <time>2025-03-13T10:49:46.144Z</time>
      </trkpt>
      <trkpt lat="50.591128" lon="9.514913">
        <ele>366.563205</ele>
        <time>2025-03-13T10:49:57.161Z</time>
      </trkpt>
      <trkpt lat="50.591057" lon="9.514800">
        <ele>366.258032</ele>
        <time>2025-03-13T10:50:05.154Z</time>
      </trkpt>
      <trkpt lat="50.590993" lon="9.514692">
        <ele>365.974448</ele>
        <time>2025-03-13T10:50:15.150Z</time>
      </trkpt>
      <trkpt lat="50.590925" lon="9.514582">
        <ele>365.679738</ele>
        <time>2025-03-13T10:50:21.161Z</time>
      </trkpt>
      <trkpt lat="50.590858" lon="9.514465">
        <ele>365.377291</ele>
        <time>2025-03-13T10:50:28.151Z</time>
      </trkpt>
      <trkpt lat="50.590777" lon="9.514388">
        <ele>365.091242</ele>
        <time>2025-03-13T10:50:37.155Z</time>
      </trkpt>
      <trkpt lat="50.590698" lon="9.514295">
        <ele>364.793045</ele>
        <time>2025-03-13T10:50:46.155Z</time>
      </trkpt>
      <trkpt lat="50.590637" lon="9.514190">
        <ele>364.519845</ele>
        <time>2025-03-13T10:51:08.160Z</time>
      </trkpt>
      <trkpt lat="50.590593" lon="9.514057">
        <ele>364.231967</ele>
        <time>2025-03-13T10:51:18.167Z</time>
      </trkpt>
      <trkpt lat="50.590533" lon="9.513947">
        <ele>363.953591</ele>
        <time>2025-03-13T10:51:26.173Z</time>
      </trkpt>
      <trkpt lat="50.590468" lon="9.513828">
        <ele>363.652259</ele>
        <time>2025-03-13T10:51:35.161Z</time>
      </trkpt>
      <trkpt lat="50.590408" lon="9.513698">
        <ele>363.343747</ele>
        <time>2025-03-13T10:51:45.170Z</time>
      </trkpt>
      <trkpt lat="50.590350" lon="9.513583">
        <ele>363.061823</ele>
        <time>2025-03-13T10:51:53.136Z</time>
      </trkpt>
      <trkpt lat="50.590312" lon="9.513448">
        <ele>362.778359</ele>
        <time>2025-03-13T10:52:02.163Z</time>
      </trkpt>
      <trkpt lat="50.590250" lon="9.513330">
        <ele>362.484344</ele>
        <time>2025-03-13T10:52:12.163Z</time>
      </trkpt>
      <trkpt lat="50.590190" lon="9.513212">
        <ele>362.194146</ele>
        <time>2025-03-13T10:52:21.170Z</time>
      </trkpt>
      <trkpt lat="50.590155" lon="9.513075">
        <ele>361.910677</ele>
        <time>2025-03-13T10:52:29.167Z</time>
      </trkpt>
      <trkpt lat="50.590122" lon="9.512927">
        <ele>361.609574</ele>
        <time>2025-03-13T10:52:37.164Z</time>
      </trkpt>
      <trkpt lat="50.590122" lon="9.512768">
        <ele>361.004105</ele>
        <time>2025-03-13T10:52:48.165Z</time>
      </trkpt>
      <trkpt lat="50.590142" lon="9.512610">
        <ele>360.326142</ele>
        <time>2025-03-13T10:52:58.164Z</time>
      </trkpt>
      <trkpt lat="50.590148" lon="9.512458">
        <ele>359.685280</ele>
        <time>2025-03-13T10:53:07.171Z</time>
      </trkpt>
      <trkpt lat="50.590160" lon="9.512313">
        <ele>359.069948</ele>
        <time>2025-03-13T10:53:14.163Z</time>
      </trkpt>
      <trkpt lat="50.590185" lon="9.512158">
        <ele>358.396977</ele>
        <time>2025-03-13T10:53:24.168Z</time>
      </trkpt>
      <trkpt lat="50.590193" lon="9.512013">
        <ele>357.784507</ele>
        <time>2025-03-13T10:53:33.173Z</time>
      </trkpt>
      <trkpt lat="50.590213" lon="9.511862">
        <ele>357.135408</ele>
        <time>2025-03-13T10:53:43.169Z</time>
      </trkpt>
      <trkpt lat="50.590218" lon="9.511717">
        <ele>356.524340</ele>
        <time>2025-03-13T10:53:52.156Z</time>
      </trkpt>
      <trkpt lat="50.590242" lon="9.511577">
        <ele>355.914111</ele>
        <time>2025-03-13T10:54:01.168Z</time>
      </trkpt>
      <trkpt lat="50.590243" lon="9.511432">
        <ele>355.303906</ele>
        <time>2025-03-13T10:54:07.167Z</time>
      </trkpt>
      <trkpt lat="50.590255" lon="9.511280">
        <ele>354.659354</ele>
        <time>2025-03-13T10:54:15.174Z</time>
      </trkpt>
      <trkpt lat="50.590250" lon="9.511133">
        <ele>354.039882</ele>
        <time>2025-03-13T10:54:24.152Z</time>
      </trkpt>
      <trkpt lat="50.590220" lon="9.510990">
        <ele>353.406125</ele>
        <time>2025-03-13T10:54:32.172Z</time>
      </trkpt>
      <trkpt lat="50.590188" lon="9.510857">
        <ele>352.807608</ele>
        <time>2025-03-13T10:54:38.163Z</time>
      </trkpt>
      <trkpt lat="50.590147" lon="9.510710">
        <ele>352.131958</ele>
        <time>2025-03-13T10:54:47.163Z</time>
      </trkpt>
      <trkpt lat="50.590115" lon="9.510568">
        <ele>351.497884</ele>
        <time>2025-03-13T10:54:56.169Z</time>
      </trkpt>
      <trkpt lat="50.590070" lon="9.510440">
        <ele>350.882178</ele>
        <time>2025-03-13T10:55:05.166Z</time>
      </trkpt>
      <trkpt lat="50.590005" lon="9.510338">
        <ele>350.274020</ele>
        <time>2025-03-13T10:55:15.163Z</time>
      </trkpt>
      <trkpt lat="50.589952" lon="9.510222">
        <ele>349.672612</ele>
        <time>2025-03-13T10:55:24.168Z</time>
      </trkpt>
      <trkpt lat="50.589885" lon="9.510115">
        <ele>349.427437</ele>
        <time>2025-03-13T10:55:34.169Z</time>
      </trkpt>
      <trkpt lat="50.589815" lon="9.510015">
        <ele>349.209368</ele>
        <time>2025-03-13T10:55:43.173Z</time>
      </trkpt>
      <trkpt lat="50.589758" lon="9.509890">
        <ele>348.983901</ele>
        <time>2025-03-13T10:55:51.172Z</time>
      </trkpt>
      <trkpt lat="50.589682" lon="9.509787">
        <ele>348.752544</ele>
        <time>2025-03-13T10:56:00.157Z</time>
      </trkpt>
      <trkpt lat="50.589613" lon="9.509672">
        <ele>348.520735</ele>
        <time>2025-03-13T10:56:09.136Z</time>
      </trkpt>
      <trkpt lat="50.589545" lon="9.509572">
        <ele>348.306061</ele>
        <time>2025-03-13T10:56:21.171Z</time>
      </trkpt>
      <trkpt lat="50.589483" lon="9.509460">
        <ele>348.088366</ele>
        <time>2025-03-13T10:56:30.170Z</time>
      </trkpt>
      <trkpt lat="50.589418" lon="9.509362">
        <ele>347.880736</ele>
        <time>2025-03-13T10:56:36.175Z</time>
      </trkpt>
      <trkpt lat="50.589368" lon="9.509242">
        <ele>347.670454</ele>
        <time>2025-03-13T10:56:45.168Z</time>
      </trkpt>
      <trkpt lat="50.589288" lon="9.509140">
        <ele>347.432948</ele>
        <time>2025-03-13T10:56:53.167Z</time>
      </trkpt>
      <trkpt lat="50.589222" lon="9.509032">
        <ele>347.213337</ele>
        <time>2025-03-13T10:56:59.170Z</time>
      </trkpt>
      <trkpt lat="50.589163" lon="9.508920">
        <ele>347.000126</ele>
        <time>2025-03-13T10:57:14.160Z</time>
      </trkpt>
      <trkpt lat="50.589143" lon="9.508768">
        <ele>346.772710</ele>
        <time>2025-03-13T10:57:23.161Z</time>
      </trkpt>
      <trkpt lat="50.589152" lon="9.508623">
        <ele>346.559270</ele>
        <time>2025-03-13T10:57:32.161Z</time>
      </trkpt>
      <trkpt lat="50.589105" lon="9.508495">
        <ele>346.342642</ele>
        <time>2025-03-13T10:57:52.167Z</time>
      </trkpt>
      <trkpt lat="50.589030" lon="9.508390">
        <ele>346.111093</ele>
        <time>2025-03-13T10:58:01.172Z</time>
      </trkpt>
      <trkpt lat="50.588960" lon="9.508290">
        <ele>345.893022</ele>
        <time>2025-03-13T10:58:10.169Z</time>
      </trkpt>
      <trkpt lat="50.588877" lon="9.508217">
        <ele>345.673658</ele>
        <time>2025-03-13T10:58:20.173Z</time>
      </trkpt>
      <trkpt lat="50.588840" lon="9.508357">
        <ele>345.537057</ele>
        <time>2025-03-13T10:58:31.174Z</time>
      </trkpt>
      <trkpt lat="50.588810" lon="9.508493">
        <ele>345.885385</ele>
        <time>2025-03-13T10:58:40.172Z</time>
      </trkpt>
      <trkpt lat="50.588763" lon="9.508625">
        <ele>346.251536</ele>
        <time>2025-03-13T10:58:51.146Z</time>
      </trkpt>
      <trkpt lat="50.588703" lon="9.508742">
        <ele>346.615410</ele>
        <time>2025-03-13T10:59:00.166Z</time>
      </trkpt>
      <trkpt lat="50.588622" lon="9.508803">
        <ele>346.957546</ele>
        <time>2025-03-13T10:59:10.164Z</time>
      </trkpt>
      <trkpt lat="50.588535" lon="9.508875">
        <ele>347.332057</ele>
        <time>2025-03-13T10:59:26.168Z</time>
      </trkpt>
      <trkpt lat="50.588448" lon="9.508937">
        <ele>347.695945</ele>
        <time>2025-03-13T10:59:39.172Z</time>
      </trkpt>
      <trkpt lat="50.588363" lon="9.508985">
        <ele>348.040046</ele>
        <time>2025-03-13T10:59:46.168Z</time>
      </trkpt>
      <trkpt lat="50.588268" lon="9.509007">
        <ele>348.405958</ele>
        <time>2025-03-13T10:59:57.168Z</time>
      </trkpt>
      <trkpt lat="50.588177" lon="9.509043">
        <ele>348.763505</ele>
        <time>2025-03-13T11:00:06.167Z</time>
      </trkpt>
      <trkpt lat="50.588093" lon="9.509120">
        <ele>349.133870</ele>
        <time>2025-03-13T11:00:14.167Z</time>
      </trkpt>
      <trkpt lat="50.588010" lon="9.509178">
        <ele>349.479891</ele>
        <time>2025-03-13T11:00:23.172Z</time>
      </trkpt>
      <trkpt lat="50.587927" lon="9.509248">
        <ele>349.838670</ele>
        <time>2025-03-13T11:00:32.167Z</time>
      </trkpt>
      <trkpt lat="50.587830" lon="9.509280">
        <ele>350.216332</ele>
        <time>2025-03-13T11:00:42.167Z</time>
      </trkpt>
      <trkpt lat="50.587753" lon="9.509360">
        <ele>350.567845</ele>
        <time>2025-03-13T11:00:48.140Z</time>
      </trkpt>
      <trkpt lat="50.587693" lon="9.509483">
        <ele>350.943128</ele>
        <time>2025-03-13T11:00:58.173Z</time>
      </trkpt>
      <trkpt lat="50.587623" lon="9.509575">
        <ele>351.290548</ele>
        <time>2025-03-13T11:01:09.171Z</time>
      </trkpt>
      <trkpt lat="50.587545" lon="9.509667">
        <ele>351.661890</ele>
        <time>2025-03-13T11:01:22.174Z</time>
      </trkpt>
      <trkpt lat="50.587473" lon="9.509772">
        <ele>352.035811</ele>
        <time>2025-03-13T11:01:29.162Z</time>
      </trkpt>
      <trkpt lat="50.587402" lon="9.509877">
        <ele>352.329476</ele>
        <time>2025-03-13T11:01:41.166Z</time>
      </trkpt>
      <trkpt lat="50.587333" lon="9.509985">
        <ele>352.284197</ele>
        <time>2025-03-13T11:01:52.162Z</time>
      </trkpt>
      <trkpt lat="50.587255" lon="9.510073">
        <ele>352.239537</ele>
        <time>2025-03-13T11:02:05.167Z</time>
      </trkpt>
      <trkpt lat="50.587193" lon="9.510188">
        <ele>352.194951</ele>
        <time>2025-03-13T11:02:25.176Z</time>
      </trkpt>
      <trkpt lat="50.587115" lon="9.510272">
        <ele>352.150968</ele>
        <time>2025-03-13T11:02:34.169Z</time>
      </trkpt>
      <trkpt lat="50.587025" lon="9.510260">
        <ele>352.108926</ele>
        <time>2025-03-13T11:02:42.166Z</time>
      </trkpt>
      <trkpt lat="50.586927" lon="9.510228">
        <ele>352.062340</ele>
        <time>2025-03-13T11:02:52.174Z</time>
      </trkpt>
      <trkpt lat="50.586837" lon="9.510165">
        <ele>352.016496</ele>
        <time>2025-03-13T11:03:00.168Z</time>
      </trkpt>
      <trkpt lat="50.586768" lon="9.510068">
        <ele>351.973446</ele>
        <time>2025-03-13T11:03:09.136Z</time>
      </trkpt>
      <trkpt lat="50.586650" lon="9.509902">
        <ele>351.899801</ele>
        <time>2025-03-13T11:05:32.174Z</time>
      </trkpt>
      <trkpt lat="50.586573" lon="9.509818">
        <ele>351.856202</ele>
        <time>2025-03-13T11:05:43.172Z</time>
      </trkpt>
      <trkpt lat="50.586483" lon="9.509848">
        <ele>351.813382</ele>
        <time>2025-03-13T11:05:53.167Z</time>
      </trkpt>
      <trkpt lat="50.586410" lon="9.509945">
        <ele>351.768925</ele>
        <time>2025-03-13T11:06:02.167Z</time>
      </trkpt>
      <trkpt lat="50.586338" lon="9.510045">
        <ele>351.724242</ele>
        <time>2025-03-13T11:06:09.162Z</time>
      </trkpt>
      <trkpt lat="50.586272" lon="9.510155">
        <ele>351.679514</ele>
        <time>2025-03-13T11:06:17.167Z</time>
      </trkpt>
      <trkpt lat="50.586197" lon="9.510263">
        <ele>351.632211</ele>
        <time>2025-03-13T11:06:27.165Z</time>
      </trkpt>
      <trkpt lat="50.586120" lon="9.510347">
        <ele>351.588612</ele>
        <time>2025-03-13T11:06:36.166Z</time>
      </trkpt>
      <trkpt lat="50.586052" lon="9.510457">
        <ele>351.543239</ele>
        <time>2025-03-13T11:06:44.172Z</time>
      </trkpt>
      <trkpt lat="50.585967" lon="9.510528">
        <ele>351.476607</ele>
        <time>2025-03-13T11:06:58.161Z</time>
      </trkpt>
      <trkpt lat="50.585872" lon="9.510480">
        <ele>350.976383</ele>
        <time>2025-03-13T11:07:08.161Z</time>
      </trkpt>
      <trkpt lat="50.585833" lon="9.510350">
        <ele>350.518672</ele>
        <time>2025-03-13T11:07:15.167Z</time>
      </trkpt>
      <trkpt lat="50.585780" lon="9.510227">
        <ele>350.045458</ele>
        <time>2025-03-13T11:07:27.156Z</time>
      </trkpt>
      <trkpt lat="50.585747" lon="9.510077">
        <ele>349.540096</ele>
        <time>2025-03-13T11:07:36.164Z</time>
      </trkpt>
      <trkpt lat="50.585727" lon="9.509937">
        <ele>349.083279</ele>
        <time>2025-03-13T11:07:46.171Z</time>
      </trkpt>
      <trkpt lat="50.585693" lon="9.509805">
        <ele>348.629809</ele>
        <time>2025-03-13T11:07:55.169Z</time>
      </trkpt>
      <trkpt lat="50.585642" lon="9.509677">
        <ele>348.148746</ele>
        <time>2025-03-13T11:08:05.165Z</time>
      </trkpt>
      <trkpt lat="50.585565" lon="9.509592">
        <ele>347.677296</ele>
        <time>2025-03-13T11:08:15.163Z</time>
      </trkpt>
      <trkpt lat="50.585533" lon="9.509452">
        <ele>347.203619</ele>
        <time>2025-03-13T11:08:24.167Z</time>
      </trkpt>
      <trkpt lat="50.585543" lon="9.509302">
        <ele>346.723482</ele>
        <time>2025-03-13T11:08:35.173Z</time>
      </trkpt>
      <trkpt lat="50.585555" lon="9.509158">
        <ele>346.261140</ele>
        <time>2025-03-13T11:08:43.168Z</time>
      </trkpt>
      <trkpt lat="50.585558" lon="9.509008">
        <ele>345.783392</ele>
        <time>2025-03-13T11:08:48.171Z</time>
      </trkpt>
      <trkpt lat="50.585587" lon="9.508865">
        <ele>345.305507</ele>
        <time>2025-03-13T11:08:55.169Z</time>
      </trkpt>
      <trkpt lat="50.585615" lon="9.508727">
        <ele>344.844311</ele>
        <time>2025-03-13T11:09:03.171Z</time>
      </trkpt>
      <trkpt lat="50.585617" lon="9.508585">
        <ele>344.392157</ele>
        <time>2025-03-13T11:09:12.162Z</time>
      </trkpt>
      <trkpt lat="50.585585" lon="9.508437">
        <ele>343.894443</ele>
        <time>2025-03-13T11:09:22.162Z</time>
      </trkpt>
      <trkpt lat="50.585515" lon="9.508333">
        <ele>343.411961</ele>
        <time>2025-03-13T11:09:29.161Z</time>
      </trkpt>
      <trkpt lat="50.585478" lon="9.508197">
        <ele>342.940946</ele>
        <time>2025-03-13T11:09:41.136Z</time>
      </trkpt>
      <trkpt lat="50.585453" lon="9.508048">
        <ele>342.515950</ele>
        <time>2025-03-13T11:09:48.165Z</time>
      </trkpt>
      <trkpt lat="50.585410" lon="9.507917">
        <ele>343.001333</ele>
        <time>2025-03-13T11:09:57.172Z</time>
      </trkpt>
      <trkpt lat="50.585383" lon="9.507775">
        <ele>343.489217</ele>
        <time>2025-03-13T11:10:15.164Z</time>
      </trkpt>
      <trkpt lat="50.585347" lon="9.507638">
        <ele>343.977229</ele>
        <time>2025-03-13T11:10:24.163Z</time>
      </trkpt>
      <trkpt lat="50.585252" lon="9.507662">
        <ele>344.475993</ele>
        <time>2025-03-13T11:10:37.173Z</time>
      </trkpt>
      <trkpt lat="50.585157" lon="9.507742">
        <ele>345.034436</ele>
        <time>2025-03-13T11:10:43.164Z</time>
      </trkpt>
      <trkpt lat="50.585030" lon="9.507857">
        <ele>345.793843</ele>
        <time>2025-03-13T11:11:45.163Z</time>
      </trkpt>
      <trkpt lat="50.584937" lon="9.507882">
        <ele>346.282915</ele>
        <time>2025-03-13T11:11:53.163Z</time>
      </trkpt>
      <trkpt lat="50.584847" lon="9.507867">
        <ele>346.752069</ele>
        <time>2025-03-13T11:12:03.172Z</time>
      </trkpt>
      <trkpt lat="50.584752" lon="9.507847">
        <ele>347.248918</ele>
        <time>2025-03-13T11:12:11.166Z</time>
      </trkpt>
      <trkpt lat="50.584667" lon="9.507800">
        <ele>347.715914</ele>
        <time>2025-03-13T11:12:20.138Z</time>
      </trkpt>
      <trkpt lat="50.584570" lon="9.507785">
        <ele>348.221169</ele>
        <time>2025-03-13T11:12:31.163Z</time>
      </trkpt>
      <trkpt lat="50.584473" lon="9.507795">
        <ele>348.725081</ele>
        <time>2025-03-13T11:12:42.161Z</time>
      </trkpt>
      <trkpt lat="50.584382" lon="9.507800">
        <ele>349.197101</ele>
        <time>2025-03-13T11:12:53.172Z</time>
      </trkpt>
      <trkpt lat="50.584287" lon="9.507810">
        <ele>349.690668</ele>
        <time>2025-03-13T11:13:02.167Z</time>
      </trkpt>
      <trkpt lat="50.584193" lon="9.507812">
        <ele>350.177997</ele>
        <time>2025-03-13T11:13:14.167Z</time>
      </trkpt>
      <trkpt lat="50.584100" lon="9.507790">
        <ele>350.665505</ele>
        <time>2025-03-13T11:13:26.167Z</time>
      </trkpt>
      <trkpt lat="50.584000" lon="9.507768">
        <ele>351.188926</ele>
        <time>2025-03-13T11:13:34.169Z</time>
      </trkpt>
      <trkpt lat="50.583908" lon="9.507750">
        <ele>351.669509</ele>
        <time>2025-03-13T11:13:44.159Z</time>
      </trkpt>
      <trkpt lat="50.583812" lon="9.507740">
        <ele>352.344146</ele>
        <time>2025-03-13T11:13:53.167Z</time>
      </trkpt>
      <trkpt lat="50.583720" lon="9.507717">
        <ele>353.061861</ele>
        <time>2025-03-13T11:14:01.160Z</time>
      </trkpt>
      <trkpt lat="50.583627" lon="9.507697">
        <ele>353.785055</ele>
        <time>2025-03-13T11:14:11.159Z</time>
      </trkpt>
      <trkpt lat="50.583527" lon="9.507675">
        <ele>354.563015</ele>
        <time>2025-03-13T11:14:18.169Z</time>
      </trkpt>
      <trkpt lat="50.583433" lon="9.507633">
        <ele>355.315847</ele>
        <time>2025-03-13T11:14:28.166Z</time>
      </trkpt>
      <trkpt lat="50.583340" lon="9.507645">
        <ele>356.034793</ele>
        <time>2025-03-13T11:14:42.164Z</time>
      </trkpt>
      <trkpt lat="50.583252" lon="9.507612">
        <ele>356.731769</ele>
        <time>2025-03-13T11:14:50.169Z</time>
      </trkpt>
      <trkpt lat="50.583162" lon="9.507642">
        <ele>357.440562</ele>
        <time>2025-03-13T11:15:10.173Z</time>
      </trkpt>
      <trkpt lat="50.583068" lon="9.507625">
        <ele>358.169571</ele>
        <time>2025-03-13T11:15:22.171Z</time>
      </trkpt>
      <trkpt lat="50.582975" lon="9.507622">
        <ele>358.886266</ele>
        <time>2025-03-13T11:15:32.168Z</time>
      </trkpt>
      <trkpt lat="50.582885" lon="9.507602">
        <ele>359.586566</ele>
        <time>2025-03-13T11:15:41.171Z</time>
      </trkpt>
      <trkpt lat="50.582795" lon="9.507628">
        <ele>360.291566</ele>
        <time>2025-03-13T11:15:52.172Z</time>
      </trkpt>
      <trkpt lat="50.582698" lon="9.507655">
        <ele>361.050514</ele>
        <time>2025-03-13T11:16:03.174Z</time>
      </trkpt>
      <trkpt lat="50.582605" lon="9.507673">
        <ele>361.772450</ele>
        <time>2025-03-13T11:16:11.173Z</time>
      </trkpt>
      <trkpt lat="50.582520" lon="9.507720">
        <ele>362.466549</ele>
        <time>2025-03-13T11:16:21.165Z</time>
      </trkpt>
      <trkpt lat="50.582430" lon="9.507713">
        <ele>363.160825</ele>
        <time>2025-03-13T11:16:33.172Z</time>
      </trkpt>
      <trkpt lat="50.582345" lon="9.507760">
        <ele>363.854925</ele>
        <time>2025-03-13T11:16:44.161Z</time>
      </trkpt>
      <trkpt lat="50.582250" lon="9.507755">
        <ele>364.587288</ele>
        <time>2025-03-13T11:16:57.171Z</time>
      </trkpt>
      <trkpt lat="50.582158" lon="9.507797">
        <ele>365.325309</ele>
        <time>2025-03-13T11:17:05.173Z</time>
      </trkpt>
      <trkpt lat="50.582070" lon="9.507832">
        <ele>365.647196</ele>
        <time>2025-03-13T11:17:12.171Z</time>
      </trkpt>
      <trkpt lat="50.581975" lon="9.507858">
        <ele>365.611059</ele>
        <time>2025-03-13T11:17:22.173Z</time>
      </trkpt>
      <trkpt lat="50.581887" lon="9.507893">
        <ele>365.577044</ele>
        <time>2025-03-13T11:17:32.165Z</time>
      </trkpt>
      <trkpt lat="50.581823" lon="9.508008">
        <ele>365.540654</ele>
        <time>2025-03-13T11:17:44.167Z</time>
      </trkpt>
      <trkpt lat="50.581867" lon="9.508143">
        <ele>365.504544</ele>
        <time>2025-03-13T11:17:54.168Z</time>
      </trkpt>
      <trkpt lat="50.581922" lon="9.508257">
        <ele>365.470473</ele>
        <time>2025-03-13T11:18:04.167Z</time>
      </trkpt>
      <trkpt lat="50.581975" lon="9.508372">
        <ele>365.436658</ele>
        <time>2025-03-13T11:18:14.164Z</time>
      </trkpt>
      <trkpt lat="50.582028" lon="9.508495">
        <ele>365.401285</ele>
        <time>2025-03-13T11:18:23.166Z</time>
      </trkpt>
      <trkpt lat="50.582102" lon="9.508598">
        <ele>365.364273</ele>
        <time>2025-03-13T11:18:31.172Z</time>
      </trkpt>
      <trkpt lat="50.582142" lon="9.508730">
        <ele>365.329468</ele>
        <time>2025-03-13T11:18:42.154Z</time>
      </trkpt>
      <trkpt lat="50.582175" lon="9.508882">
        <ele>365.291241</ele>
        <time>2025-03-13T11:19:18.140Z</time>
      </trkpt>
      <trkpt lat="50.582215" lon="9.509012">
        <ele>365.256864</ele>
        <time>2025-03-13T11:19:30.174Z</time>
      </trkpt>
      <trkpt lat="50.582255" lon="9.509157">
        <ele>365.219244</ele>
        <time>2025-03-13T11:19:40.192Z</time>
      </trkpt>
      <trkpt lat="50.582312" lon="9.509290">
        <ele>365.181060</ele>
        <time>2025-03-13T11:19:48.136Z</time>
      </trkpt>
      <trkpt lat="50.582328" lon="9.509440">
        <ele>365.144864</ele>
        <time>2025-03-13T11:19:59.161Z</time>
      </trkpt>
      <trkpt lat="50.582378" lon="9.509570">
        <ele>365.108696</ele>
        <time>2025-03-13T11:20:07.174Z</time>
      </trkpt>
      <trkpt lat="50.582410" lon="9.509708">
        <ele>365.073736</ele>
        <time>2025-03-13T11:20:18.136Z</time>
      </trkpt>
      <trkpt lat="50.582445" lon="9.509858">
        <ele>365.035707</ele>
        <time>2025-03-13T11:20:28.174Z</time>
      </trkpt>
      <trkpt lat="50.582435" lon="9.510002">
        <ele>365.001236</ele>
        <time>2025-03-13T11:20:37.173Z</time>
      </trkpt>
      <trkpt lat="50.582407" lon="9.510138">
        <ele>364.382375</ele>
        <time>2025-03-13T11:20:47.159Z</time>
      </trkpt>
      <trkpt lat="50.582365" lon="9.510272">
        <ele>363.458584</ele>
        <time>2025-03-13T11:20:58.170Z</time>
      </trkpt>
      <trkpt lat="50.582303" lon="9.510402">
        <ele>362.453504</ele>
        <time>2025-03-13T11:21:07.173Z</time>
      </trkpt>
      <trkpt lat="50.582238" lon="9.510512">
        <ele>361.524598</ele>
        <time>2025-03-13T11:21:19.163Z</time>
      </trkpt>
      <trkpt lat="50.582182" lon="9.510630">
        <ele>360.613909</ele>
        <time>2025-03-13T11:21:30.163Z</time>
      </trkpt>
      <trkpt lat="50.582178" lon="9.510775">
        <ele>359.716692</ele>
        <time>2025-03-13T11:21:39.174Z</time>
      </trkpt>
      <trkpt lat="50.582177" lon="9.510918">
        <ele>358.832631</ele>
        <time>2025-03-13T11:21:48.164Z</time>
      </trkpt>
      <trkpt lat="50.582213" lon="9.511062">
        <ele>357.875930</ele>
        <time>2025-03-13T11:21:59.169Z</time>
      </trkpt>
      <trkpt lat="50.582232" lon="9.511208">
        <ele>356.954617</ele>
        <time>2025-03-13T11:22:11.166Z</time>
      </trkpt>
      <trkpt lat="50.582270" lon="9.511348">
        <ele>356.013400</ele>
        <time>2025-03-13T11:22:19.174Z</time>
      </trkpt>
      <trkpt lat="50.582305" lon="9.511492">
        <ele>355.060224</ele>
        <time>2025-03-13T11:22:32.172Z</time>
      </trkpt>
      <trkpt lat="50.582322" lon="9.511637">
        <ele>354.148704</ele>
        <time>2025-03-13T11:22:41.176Z</time>
      </trkpt>
      <trkpt lat="50.582348" lon="9.511780">
        <ele>353.229172</ele>
        <time>2025-03-13T11:22:50.172Z</time>
      </trkpt>
      <trkpt lat="50.582358" lon="9.511927">
        <ele>352.315240</ele>
        <time>2025-03-13T11:22:58.173Z</time>
      </trkpt>
      <trkpt lat="50.582368" lon="9.512080">
        <ele>351.364420</ele>
        <time>2025-03-13T11:23:07.173Z</time>
      </trkpt>
      <trkpt lat="50.582393" lon="9.512228">
        <ele>350.417686</ele>
        <time>2025-03-13T11:23:17.163Z</time>
      </trkpt>
      <trkpt lat="50.582398" lon="9.512383">
        <ele>349.458264</ele>
        <time>2025-03-13T11:23:29.172Z</time>
      </trkpt>
      <trkpt lat="50.582398" lon="9.512532">
        <ele>348.537170</ele>
        <time>2025-03-13T11:23:37.168Z</time>
      </trkpt>
      <trkpt lat="50.582382" lon="9.512672">
        <ele>347.657805</ele>
        <time>2025-03-13T11:23:45.169Z</time>
      </trkpt>
      <trkpt lat="50.582357" lon="9.512818">
        <ele>347.300015</ele>
        <time>2025-03-13T11:23:54.165Z</time>
      </trkpt>
      <trkpt lat="50.582320" lon="9.512950">
        <ele>347.088279</ele>
        <time>2025-03-13T11:24:02.168Z</time>
      </trkpt>
      <trkpt lat="50.582300" lon="9.513098">
        <ele>346.866235</ele>
        <time>2025-03-13T11:24:11.163Z</time>
      </trkpt>
      <trkpt lat="50.582280" lon="9.513243">
        <ele>346.648494</ele>
        <time>2025-03-13T11:24:19.174Z</time>
      </trkpt>
      <trkpt lat="50.582310" lon="9.513378">
        <ele>346.438608</ele>
        <time>2025-03-13T11:24:28.173Z</time>
      </trkpt>
      <trkpt lat="50.582333" lon="9.513517">
        <ele>346.227823</ele>
        <time>2025-03-13T11:24:36.138Z</time>
      </trkpt>
      <trkpt lat="50.582352" lon="9.513662">
        <ele>346.010561</ele>
        <time>2025-03-13T11:24:46.174Z</time>
      </trkpt>
      <trkpt lat="50.582303" lon="9.513795">
        <ele>345.784919</ele>
        <time>2025-03-13T11:24:56.137Z</time>
      </trkpt>
      <trkpt lat="50.582250" lon="9.513925">
        <ele>345.558215</ele>
        <time>2025-03-13T11:25:05.173Z</time>
      </trkpt>
      <trkpt lat="50.582197" lon="9.514042">
        <ele>345.347312</ele>
        <time>2025-03-13T11:25:12.171Z</time>
      </trkpt>
      <trkpt lat="50.582132" lon="9.514158">
        <ele>345.120285</ele>
        <time>2025-03-13T11:25:19.172Z</time>
      </trkpt>
      <trkpt lat="50.582077" lon="9.514273">
        <ele>344.909016</ele>
        <time>2025-03-13T11:25:28.162Z</time>
      </trkpt>
      <trkpt lat="50.582025" lon="9.514400">
        <ele>344.687264</ele>
        <time>2025-03-13T11:25:36.136Z</time>
      </trkpt>
      <trkpt lat="50.581975" lon="9.514520">
        <ele>344.476643</ele>
        <time>2025-03-13T11:25:43.174Z</time>
      </trkpt>
      <trkpt lat="50.581918" lon="9.514638">
        <ele>344.259073</ele>
        <time>2025-03-13T11:25:54.169Z</time>
      </trkpt>
      <trkpt lat="50.581860" lon="9.514758">
        <ele>344.037769</ele>
        <time>2025-03-13T11:26:03.182Z</time>
      </trkpt>
      <trkpt lat="50.581798" lon="9.514877">
        <ele>343.811882</ele>
        <time>2025-03-13T11:26:13.172Z</time>
      </trkpt>
      <trkpt lat="50.581745" lon="9.514992">
        <ele>343.603360</ele>
        <time>2025-03-13T11:26:22.162Z</time>
      </trkpt>
      <trkpt lat="50.581693" lon="9.515123">
        <ele>343.376651</ele>
        <time>2025-03-13T11:26:30.163Z</time>
      </trkpt>
      <trkpt lat="50.581637" lon="9.515248">
        <ele>343.291970</ele>
        <time>2025-03-13T11:26:39.171Z</time>
      </trkpt>
      <trkpt lat="50.581580" lon="9.515375">
        <ele>343.250643</ele>
        <time>2025-03-13T11:26:48.169Z</time>
      </trkpt>
      <trkpt lat="50.581517" lon="9.515495">
        <ele>343.209268</ele>
        <time>2025-03-13T11:26:56.137Z</time>
      </trkpt>
      <trkpt lat="50.581467" lon="9.515625">
        <ele>343.168879</ele>
        <time>2025-03-13T11:27:04.172Z</time>
      </trkpt>
      <trkpt lat="50.581412" lon="9.515748">
        <ele>343.128903</ele>
        <time>2025-03-13T11:27:13.142Z</time>
      </trkpt>
      <trkpt lat="50.581350" lon="9.515870">
        <ele>343.087379</ele>
        <time>2025-03-13T11:27:20.164Z</time>
      </trkpt>
      <trkpt lat="50.581298" lon="9.515993">
        <ele>343.048113</ele>
        <time>2025-03-13T11:27:28.164Z</time>
      </trkpt>
      <trkpt lat="50.581233" lon="9.516108">
        <ele>343.007200</ele>
        <time>2025-03-13T11:27:36.162Z</time>
      </trkpt>
      <trkpt lat="50.581175" lon="9.516222">
        <ele>342.968382</ele>
        <time>2025-03-13T11:27:45.166Z</time>
      </trkpt>
      <trkpt lat="50.581113" lon="9.516333">
        <ele>342.929098</ele>
        <time>2025-03-13T11:27:53.166Z</time>
      </trkpt>
      <trkpt lat="50.581047" lon="9.516442">
        <ele>342.889075</ele>
        <time>2025-03-13T11:28:01.163Z</time>
      </trkpt>
      <trkpt lat="50.580987" lon="9.516565">
        <ele>342.847858</ele>
        <time>2025-03-13T11:28:09.173Z</time>
      </trkpt>
      <trkpt lat="50.580932" lon="9.516685">
        <ele>342.808531</ele>
        <time>2025-03-13T11:28:19.172Z</time>
      </trkpt>
      <trkpt lat="50.580865" lon="9.516793">
        <ele>342.768408</ele>
        <time>2025-03-13T11:28:27.173Z</time>
      </trkpt>
      <trkpt lat="50.580802" lon="9.516910">
        <ele>342.727643</ele>
        <time>2025-03-13T11:28:34.172Z</time>
      </trkpt>
      <trkpt lat="50.580733" lon="9.517013">
        <ele>342.687857</ele>
        <time>2025-03-13T11:28:43.168Z</time>
      </trkpt>
      <trkpt lat="50.580663" lon="9.517128">
        <ele>342.645524</ele>
        <time>2025-03-13T11:28:52.162Z</time>
      </trkpt>
      <trkpt lat="50.580600" lon="9.517237">
        <ele>342.606357</ele>
        <time>2025-03-13T11:29:00.170Z</time>
      </trkpt>
      <trkpt lat="50.580537" lon="9.517353">
        <ele>342.544738</ele>
        <time>2025-03-13T11:29:11.165Z</time>
      </trkpt>
      <trkpt lat="50.580470" lon="9.517450">
        <ele>342.323513</ele>
        <time>2025-03-13T11:29:19.171Z</time>
      </trkpt>
      <trkpt lat="50.580407" lon="9.517558">
        <ele>342.097149</ele>
        <time>2025-03-13T11:29:29.136Z</time>
      </trkpt>
      <trkpt lat="50.580350" lon="9.517690">
        <ele>341.850756</ele>
        <time>2025-03-13T11:29:35.136Z</time>
      </trkpt>
      <trkpt lat="50.580315" lon="9.517833">
        <ele>341.614203</ele>
        <time>2025-03-13T11:29:43.162Z</time>
      </trkpt>
      <trkpt lat="50.580335" lon="9.517972">
        <ele>341.394213</ele>
        <time>2025-03-13T11:29:54.168Z</time>
      </trkpt>
      <trkpt lat="50.580383" lon="9.518103">
        <ele>341.160763</ele>
        <time>2025-03-13T11:30:02.167Z</time>
      </trkpt>
      <trkpt lat="50.580428" lon="9.518235">
        <ele>340.929511</ele>
        <time>2025-03-13T11:30:10.160Z</time>
      </trkpt>
      <trkpt lat="50.580478" lon="9.518355">
        <ele>340.707973</ele>
        <time>2025-03-13T11:30:18.166Z</time>
      </trkpt>
      <trkpt lat="50.580532" lon="9.518492">
        <ele>340.459083</ele>
        <time>2025-03-13T11:30:27.169Z</time>
      </trkpt>
      <trkpt lat="50.580560" lon="9.518632">
        <ele>340.232525</ele>
        <time>2025-03-13T11:30:36.166Z</time>
      </trkpt>
      <trkpt lat="50.580615" lon="9.518765">
        <ele>339.987542</ele>
        <time>2025-03-13T11:30:45.168Z</time>
      </trkpt>
      <trkpt lat="50.580675" lon="9.518885">
        <ele>339.751791</ele>
        <time>2025-03-13T11:30:53.169Z</time>
      </trkpt>
      <trkpt lat="50.580720" lon="9.519012">
        <ele>339.527311</ele>
        <time>2025-03-13T11:31:01.168Z</time>
      </trkpt>
      <trkpt lat="50.580633" lon="9.519080">
        <ele>339.291220</ele>
        <time>2025-03-13T11:31:19.172Z</time>
      </trkpt>
      <trkpt lat="50.580540" lon="9.519053">
        <ele>339.061349</ele>
        <time>2025-03-13T11:31:29.166Z</time>
      </trkpt>
      <trkpt lat="50.580448" lon="9.519030">
        <ele>338.834918</ele>
        <time>2025-03-13T11:31:38.173Z</time>
      </trkpt>
      <trkpt lat="50.580350" lon="9.519007">
        <ele>338.594071</ele>
        <time>2025-03-13T11:31:47.161Z</time>
      </trkpt>
      <trkpt lat="50.580253" lon="9.518990">
        <ele>338.356831</ele>
        <time>2025-03-13T11:31:56.161Z</time>
      </trkpt>
      <trkpt lat="50.580163" lon="9.518945">
        <ele>338.413793</ele>
        <time>2025-03-13T11:32:06.168Z</time>
      </trkpt>
      <trkpt lat="50.580068" lon="9.518915">
        <ele>339.131507</ele>
        <time>2025-03-13T11:32:16.173Z</time>
      </trkpt>
      <trkpt lat="50.579970" lon="9.518883">
        <ele>339.872876</ele>
        <time>2025-03-13T11:32:26.160Z</time>
      </trkpt>
      <trkpt lat="50.579873" lon="9.518860">
        <ele>340.599495</ele>
        <time>2025-03-13T11:32:35.163Z</time>
      </trkpt>
      <trkpt lat="50.579780" lon="9.518843">
        <ele>341.293011</ele>
        <time>2025-03-13T11:32:44.166Z</time>
      </trkpt>
      <trkpt lat="50.579682" lon="9.518810">
        <ele>342.035349</ele>
        <time>2025-03-13T11:32:55.175Z</time>
      </trkpt>
      <trkpt lat="50.579587" lon="9.518777">
        <ele>342.755971</ele>
        <time>2025-03-13T11:33:06.165Z</time>
      </trkpt>
      <trkpt lat="50.579495" lon="9.518748">
        <ele>343.450973</ele>
        <time>2025-03-13T11:33:15.171Z</time>
      </trkpt>
      <trkpt lat="50.579407" lon="9.518722">
        <ele>344.114200</ele>
        <time>2025-03-13T11:33:24.168Z</time>
      </trkpt>
      <trkpt lat="50.579313" lon="9.518712">
        <ele>344.812085</ele>
        <time>2025-03-13T11:33:34.174Z</time>
      </trkpt>
      <trkpt lat="50.579215" lon="9.518725">
        <ele>345.540584</ele>
        <time>2025-03-13T11:33:42.161Z</time>
      </trkpt>
      <trkpt lat="50.579115" lon="9.518743">
        <ele>346.286150</ele>
        <time>2025-03-13T11:33:52.164Z</time>
      </trkpt>
      <trkpt lat="50.579023" lon="9.518745">
        <ele>346.967698</ele>
        <time>2025-03-13T11:34:01.168Z</time>
      </trkpt>
      <trkpt lat="50.578935" lon="9.518777">
        <ele>347.636705</ele>
        <time>2025-03-13T11:34:10.172Z</time>
      </trkpt>
      <trkpt lat="50.578843" lon="9.518780">
        <ele>348.318334</ele>
        <time>2025-03-13T11:34:18.166Z</time>
      </trkpt>
      <trkpt lat="50.578742" lon="9.518777">
        <ele>349.066618</ele>
        <time>2025-03-13T11:34:28.172Z</time>
      </trkpt>
      <trkpt lat="50.578652" lon="9.518787">
        <ele>349.734943</ele>
        <time>2025-03-13T11:34:36.161Z</time>
      </trkpt>
      <trkpt lat="50.578563" lon="9.518840">
        <ele>350.439768</ele>
        <time>2025-03-13T11:34:46.172Z</time>
      </trkpt>
      <trkpt lat="50.578475" lon="9.518887">
        <ele>351.128092</ele>
        <time>2025-03-13T11:34:57.170Z</time>
      </trkpt>
      <trkpt lat="50.578393" lon="9.518968">
        <ele>352.263890</ele>
        <time>2025-03-13T11:35:06.169Z</time>
      </trkpt>
      <trkpt lat="50.578310" lon="9.519037">
        <ele>353.858532</ele>
        <time>2025-03-13T11:35:16.168Z</time>
      </trkpt>
      <trkpt lat="50.578227" lon="9.519093">
        <ele>355.392715</ele>
        <time>2025-03-13T11:35:26.169Z</time>
      </trkpt>
      <trkpt lat="50.578140" lon="9.519145">
        <ele>356.973769</ele>
        <time>2025-03-13T11:35:36.172Z</time>
      </trkpt>
      <trkpt lat="50.578047" lon="9.519097">
        <ele>358.636578</ele>
        <time>2025-03-13T11:35:46.164Z</time>
      </trkpt>
      <trkpt lat="50.577970" lon="9.519003">
        <ele>360.291913</ele>
        <time>2025-03-13T11:35:56.171Z</time>
      </trkpt>
      <trkpt lat="50.577878" lon="9.518952">
        <ele>361.949050</ele>
        <time>2025-03-13T11:36:04.163Z</time>
      </trkpt>
      <trkpt lat="50.577805" lon="9.518863">
        <ele>363.517624</ele>
        <time>2025-03-13T11:36:17.167Z</time>
      </trkpt>
      <trkpt lat="50.577735" lon="9.518763">
        <ele>365.123427</ele>
        <time>2025-03-13T11:36:29.168Z</time>
      </trkpt>
      <trkpt lat="50.577655" lon="9.518695">
        <ele>366.668026</ele>
        <time>2025-03-13T11:36:41.168Z</time>
      </trkpt>
      <trkpt lat="50.577580" lon="9.518613">
        <ele>368.219327</ele>
        <time>2025-03-13T11:36:54.164Z</time>
      </trkpt>
      <trkpt lat="50.577495" lon="9.518537">
        <ele>369.880066</ele>
        <time>2025-03-13T11:37:04.174Z</time>
      </trkpt>
      <trkpt lat="50.577415" lon="9.518455">
        <ele>371.501873</ele>
        <time>2025-03-13T11:37:16.161Z</time>
      </trkpt>
      <trkpt lat="50.577340" lon="9.518367">
        <ele>373.090987</ele>
        <time>2025-03-13T11:37:27.169Z</time>
      </trkpt>
      <trkpt lat="50.577275" lon="9.518252">
        <ele>374.752073</ele>
        <time>2025-03-13T11:37:37.172Z</time>
      </trkpt>
      <trkpt lat="50.577208" lon="9.518138">
        <ele>376.428008</ele>
        <time>2025-03-13T11:37:52.171Z</time>
      </trkpt>
      <trkpt lat="50.577147" lon="9.518035">
        <ele>377.947608</ele>
        <time>2025-03-13T11:38:02.162Z</time>
      </trkpt>
      <trkpt lat="50.577080" lon="9.517932">
        <ele>379.538485</ele>
        <time>2025-03-13T11:38:13.164Z</time>
      </trkpt>
      <trkpt lat="50.577017" lon="9.517830">
        <ele>381.073710</ele>
        <time>2025-03-13T11:38:24.173Z</time>
      </trkpt>
      <trkpt lat="50.576945" lon="9.517728">
        <ele>382.394990</ele>
        <time>2025-03-13T11:38:35.167Z</time>
      </trkpt>
      <trkpt lat="50.576882" lon="9.517610">
        <ele>383.213343</ele>
        <time>2025-03-13T11:38:47.170Z</time>
      </trkpt>
      <trkpt lat="50.576820" lon="9.517487">
        <ele>384.046964</ele>
        <time>2025-03-13T11:38:59.163Z</time>
      </trkpt>
      <trkpt lat="50.576763" lon="9.517370">
        <ele>384.829761</ele>
        <time>2025-03-13T11:39:09.136Z</time>
      </trkpt>
      <trkpt lat="50.576695" lon="9.517265">
        <ele>385.625865</ele>
        <time>2025-03-13T11:39:20.172Z</time>
      </trkpt>
      <trkpt lat="50.576627" lon="9.517167">
        <ele>386.396409</ele>
        <time>2025-03-13T11:39:29.171Z</time>
      </trkpt>
      <trkpt lat="50.576555" lon="9.517063">
        <ele>387.213124</ele>
        <time>2025-03-13T11:39:39.166Z</time>
      </trkpt>
      <trkpt lat="50.576477" lon="9.516983">
        <ele>387.991244</ele>
        <time>2025-03-13T11:39:51.162Z</time>
      </trkpt>
      <trkpt lat="50.576385" lon="9.516950">
        <ele>388.779985</ele>
        <time>2025-03-13T11:40:03.164Z</time>
      </trkpt>
      <trkpt lat="50.576295" lon="9.516958">
        <ele>389.533505</ele>
        <time>2025-03-13T11:40:12.159Z</time>
      </trkpt>
      <trkpt lat="50.576202" lon="9.516962">
        <ele>390.311196</ele>
        <time>2025-03-13T11:40:23.167Z</time>
      </trkpt>
      <trkpt lat="50.576102" lon="9.516965">
        <ele>391.147261</ele>
        <time>2025-03-13T11:40:32.163Z</time>
      </trkpt>
      <trkpt lat="50.576012" lon="9.516980">
        <ele>391.903787</ele>
        <time>2025-03-13T11:40:42.164Z</time>
      </trkpt>
      <trkpt lat="50.575918" lon="9.516995">
        <ele>392.693570</ele>
        <time>2025-03-13T11:40:51.166Z</time>
      </trkpt>
      <trkpt lat="50.575827" lon="9.517032">
        <ele>393.479201</ele>
        <time>2025-03-13T11:41:01.178Z</time>
      </trkpt>
      <trkpt lat="50.575737" lon="9.517043">
        <ele>394.233787</ele>
        <time>2025-03-13T11:41:14.173Z</time>
      </trkpt>
      <trkpt lat="50.575652" lon="9.517117">
        <ele>395.045677</ele>
        <time>2025-03-13T11:41:24.172Z</time>
      </trkpt>
      <trkpt lat="50.575575" lon="9.517198">
        <ele>395.819747</ele>
        <time>2025-03-13T11:41:35.152Z</time>
      </trkpt>
      <trkpt lat="50.575515" lon="9.517308">
        <ele>396.589512</ele>
        <time>2025-03-13T11:41:47.163Z</time>
      </trkpt>
      <trkpt lat="50.575450" lon="9.517407">
        <ele>396.997045</ele>
        <time>2025-03-13T11:41:58.166Z</time>
      </trkpt>
      <trkpt lat="50.575393" lon="9.517523">
        <ele>396.592809</ele>
        <time>2025-03-13T11:42:08.164Z</time>
      </trkpt>
      <trkpt lat="50.575490" lon="9.517555">
        <ele>396.162700</ele>
        <time>2025-03-13T11:42:51.158Z</time>
      </trkpt>
      <trkpt lat="50.575368" lon="9.517727">
        <ele>395.452026</ele>
        <time>2025-03-13T11:47:26.171Z</time>
      </trkpt>
      <trkpt lat="50.575352" lon="9.517870">
        <ele>395.051832</ele>
        <time>2025-03-13T11:47:35.174Z</time>
      </trkpt>
      <trkpt lat="50.575350" lon="9.518013">
        <ele>394.657614</ele>
        <time>2025-03-13T11:47:44.161Z</time>
      </trkpt>
      <trkpt lat="50.575357" lon="9.518168">
        <ele>394.229338</ele>
        <time>2025-03-13T11:47:54.165Z</time>
      </trkpt>
      <trkpt lat="50.575360" lon="9.518317">
        <ele>393.818472</ele>
        <time>2025-03-13T11:48:04.144Z</time>
      </trkpt>
      <trkpt lat="50.575352" lon="9.518470">
        <ele>393.395362</ele>
        <time>2025-03-13T11:48:14.162Z</time>
      </trkpt>
      <trkpt lat="50.575342" lon="9.518617">
        <ele>392.987896</ele>
        <time>2025-03-13T11:48:22.166Z</time>
      </trkpt>
      <trkpt lat="50.575340" lon="9.518768">
        <ele>392.571634</ele>
        <time>2025-03-13T11:48:32.171Z</time>
      </trkpt>
      <trkpt lat="50.575313" lon="9.518908">
        <ele>392.168379</ele>
        <time>2025-03-13T11:48:42.143Z</time>
      </trkpt>
      <trkpt lat="50.575250" lon="9.519040">
        <ele>391.713285</ele>
        <time>2025-03-13T11:48:53.168Z</time>
      </trkpt>
      <trkpt lat="50.575177" lon="9.519125">
        <ele>391.319265</ele>
        <time>2025-03-13T11:49:01.182Z</time>
      </trkpt>
      <trkpt lat="50.575088" lon="9.519192">
        <ele>390.891142</ele>
        <time>2025-03-13T11:49:11.170Z</time>
      </trkpt>
      <trkpt lat="50.574997" lon="9.519263">
        <ele>390.450390</ele>
        <time>2025-03-13T11:49:20.164Z</time>
      </trkpt>
      <trkpt lat="50.574910" lon="9.519315">
        <ele>390.046534</ele>
        <time>2025-03-13T11:49:27.138Z</time>
      </trkpt>
      <trkpt lat="50.574820" lon="9.519367">
        <ele>389.630479</ele>
        <time>2025-03-13T11:49:36.168Z</time>
      </trkpt>
      <trkpt lat="50.574725" lon="9.519410">
        <ele>389.246937</ele>
        <time>2025-03-13T11:49:45.170Z</time>
      </trkpt>
      <trkpt lat="50.574632" lon="9.519473">
        <ele>388.991257</ele>
        <time>2025-03-13T11:49:55.171Z</time>
      </trkpt>
      <trkpt lat="50.574547" lon="9.519533">
        <ele>388.756011</ele>
        <time>2025-03-13T11:50:03.169Z</time>
      </trkpt>
      <trkpt lat="50.574462" lon="9.519605">
        <ele>388.512258</ele>
        <time>2025-03-13T11:50:15.164Z</time>
      </trkpt>
      <trkpt lat="50.574375" lon="9.519683">
        <ele>388.259425</ele>
        <time>2025-03-13T11:50:24.161Z</time>
      </trkpt>
      <trkpt lat="50.574288" lon="9.519755">
        <ele>388.011212</ele>
        <time>2025-03-13T11:50:33.168Z</time>
      </trkpt>
      <trkpt lat="50.574207" lon="9.519847">
        <ele>387.758986</ele>
        <time>2025-03-13T11:50:42.139Z</time>
      </trkpt>
      <trkpt lat="50.574130" lon="9.519932">
        <ele>387.521499</ele>
        <time>2025-03-13T11:50:52.163Z</time>
      </trkpt>
      <trkpt lat="50.574058" lon="9.520020">
        <ele>387.291317</ele>
        <time>2025-03-13T11:51:28.175Z</time>
      </trkpt>
      <trkpt lat="50.573968" lon="9.520090">
        <ele>387.037810</ele>
        <time>2025-03-13T11:51:36.169Z</time>
      </trkpt>
      <trkpt lat="50.573892" lon="9.520167">
        <ele>386.809576</ele>
        <time>2025-03-13T11:51:44.162Z</time>
      </trkpt>
      <trkpt lat="50.573807" lon="9.520250">
        <ele>386.556986</ele>
        <time>2025-03-13T11:51:52.168Z</time>
      </trkpt>
      <trkpt lat="50.573733" lon="9.520340">
        <ele>386.320846</ele>
        <time>2025-03-13T11:52:01.172Z</time>
      </trkpt>
      <trkpt lat="50.573662" lon="9.520438">
        <ele>386.082400</ele>
        <time>2025-03-13T11:52:10.170Z</time>
      </trkpt>
      <trkpt lat="50.573615" lon="9.520575">
        <ele>385.832658</ele>
        <time>2025-03-13T11:52:21.166Z</time>
      </trkpt>
      <trkpt lat="50.573595" lon="9.520713">
        <ele>385.605633</ele>
        <time>2025-03-13T11:52:29.173Z</time>
      </trkpt>
      <trkpt lat="50.573560" lon="9.520865">
        <ele>385.346313</ele>
        <time>2025-03-13T11:52:37.167Z</time>
      </trkpt>
      <trkpt lat="50.573535" lon="9.521007">
        <ele>385.109972</ele>
        <time>2025-03-13T11:52:45.174Z</time>
      </trkpt>
      <trkpt lat="50.573510" lon="9.521158">
        <ele>384.859691</ele>
        <time>2025-03-13T11:52:55.175Z</time>
      </trkpt>
      <trkpt lat="50.573473" lon="9.521302">
        <ele>385.098143</ele>
        <time>2025-03-13T11:53:02.173Z</time>
      </trkpt>
      <trkpt lat="50.573445" lon="9.521440">
        <ele>385.586269</ele>
        <time>2025-03-13T11:53:10.163Z</time>
      </trkpt>
      <trkpt lat="50.573432" lon="9.521587">
        <ele>386.086346</ele>
        <time>2025-03-13T11:53:17.161Z</time>
      </trkpt>
      <trkpt lat="50.573418" lon="9.521735">
        <ele>386.590515</ele>
        <time>2025-03-13T11:53:25.158Z</time>
      </trkpt>
      <trkpt lat="50.573360" lon="9.521843">
        <ele>387.067070</ele>
        <time>2025-03-13T11:53:34.171Z</time>
      </trkpt>
      <trkpt lat="50.573270" lon="9.521815">
        <ele>387.553783</ele>
        <time>2025-03-13T11:53:43.162Z</time>
      </trkpt>
      <trkpt lat="50.573177" lon="9.521750">
        <ele>388.093605</ele>
        <time>2025-03-13T11:53:53.166Z</time>
      </trkpt>
      <trkpt lat="50.573095" lon="9.521685">
        <ele>388.580663</ele>
        <time>2025-03-13T11:54:03.174Z</time>
      </trkpt>
      <trkpt lat="50.573012" lon="9.521630">
        <ele>389.058414</ele>
        <time>2025-03-13T11:54:17.168Z</time>
      </trkpt>
      <trkpt lat="50.572930" lon="9.521558">
        <ele>389.556523</ele>
        <time>2025-03-13T11:54:26.163Z</time>
      </trkpt>
      <trkpt lat="50.572852" lon="9.521488">
        <ele>390.032837</ele>
        <time>2025-03-13T11:54:35.169Z</time>
      </trkpt>
      <trkpt lat="50.572762" lon="9.521432">
        <ele>390.546250</ele>
        <time>2025-03-13T11:54:46.162Z</time>
      </trkpt>
      <trkpt lat="50.572670" lon="9.521377">
        <ele>391.068340</ele>
        <time>2025-03-13T11:54:56.172Z</time>
      </trkpt>
      <trkpt lat="50.572578" lon="9.521320">
        <ele>391.592860</ele>
        <time>2025-03-13T11:55:08.166Z</time>
      </trkpt>
      <trkpt lat="50.572493" lon="9.521267">
        <ele>392.077888</ele>
        <time>2025-03-13T11:55:19.172Z</time>
      </trkpt>
      <trkpt lat="50.572408" lon="9.521182">
        <ele>392.612105</ele>
        <time>2025-03-13T11:55:29.169Z</time>
      </trkpt>
      <trkpt lat="50.572328" lon="9.521097">
        <ele>393.124127</ele>
        <time>2025-03-13T11:55:39.166Z</time>
      </trkpt>
      <trkpt lat="50.572243" lon="9.521032">
        <ele>393.625454</ele>
        <time>2025-03-13T11:55:48.141Z</time>
      </trkpt>
      <trkpt lat="50.572148" lon="9.520992">
        <ele>394.147173</ele>
        <time>2025-03-13T11:55:59.166Z</time>
      </trkpt>
      <trkpt lat="50.572062" lon="9.520950">
        <ele>394.777021</ele>
        <time>2025-03-13T11:56:10.160Z</time>
      </trkpt>
      <trkpt lat="50.571980" lon="9.520882">
        <ele>395.506474</ele>
        <time>2025-03-13T11:56:18.171Z</time>
      </trkpt>
      <trkpt lat="50.571893" lon="9.520823">
        <ele>396.252053</ele>
        <time>2025-03-13T11:56:26.168Z</time>
      </trkpt>
      <trkpt lat="50.571818" lon="9.520727">
        <ele>397.012821</ele>
        <time>2025-03-13T11:56:36.168Z</time>
      </trkpt>
      <trkpt lat="50.571765" lon="9.520603">
        <ele>397.759979</ele>
        <time>2025-03-13T11:56:47.158Z</time>
      </trkpt>
      <trkpt lat="50.571687" lon="9.520517">
        <ele>398.509462</ele>
        <time>2025-03-13T11:56:57.166Z</time>
      </trkpt>
      <trkpt lat="50.571630" lon="9.520400">
        <ele>399.246584</ele>
        <time>2025-03-13T11:57:07.167Z</time>
      </trkpt>
      <trkpt lat="50.571572" lon="9.520292">
        <ele>399.953601</ele>
        <time>2025-03-13T11:57:15.171Z</time>
      </trkpt>
      <trkpt lat="50.571510" lon="9.520173">
        <ele>400.723020</ele>
        <time>2025-03-13T11:57:25.172Z</time>
      </trkpt>
      <trkpt lat="50.571467" lon="9.520043">
        <ele>401.455728</ele>
        <time>2025-03-13T11:57:35.163Z</time>
      </trkpt>
      <trkpt lat="50.571460" lon="9.519900">
        <ele>402.172692</ele>
        <time>2025-03-13T11:57:45.161Z</time>
      </trkpt>
      <trkpt lat="50.571473" lon="9.519755">
        <ele>402.904720</ele>
        <time>2025-03-13T11:57:53.172Z</time>
      </trkpt>
      <trkpt lat="50.571480" lon="9.519610">
        <ele>403.631652</ele>
        <time>2025-03-13T11:58:03.169Z</time>
      </trkpt>
      <trkpt lat="50.571478" lon="9.519455">
        <ele>404.406642</ele>
        <time>2025-03-13T11:58:12.168Z</time>
      </trkpt>
      <trkpt lat="50.571495" lon="9.519297">
        <ele>405.207723</ele>
        <time>2025-03-13T11:58:21.166Z</time>
      </trkpt>
      <trkpt lat="50.571485" lon="9.519150">
        <ele>405.946765</ele>
        <time>2025-03-13T11:58:30.167Z</time>
      </trkpt>
      <trkpt lat="50.571470" lon="9.519005">
        <ele>406.681158</ele>
        <time>2025-03-13T11:58:38.160Z</time>
      </trkpt>
      <trkpt lat="50.571473" lon="9.518862">
        <ele>407.396391</ele>
        <time>2025-03-13T11:58:47.167Z</time>
      </trkpt>
      <trkpt lat="50.571445" lon="9.518712">
        <ele>408.177943</ele>
        <time>2025-03-13T11:58:58.170Z</time>
      </trkpt>
      <trkpt lat="50.571408" lon="9.518578">
        <ele>408.774815</ele>
        <time>2025-03-13T11:59:14.164Z</time>
      </trkpt>
      <trkpt lat="50.571372" lon="9.518445">
        <ele>409.278789</ele>
        <time>2025-03-13T11:59:24.164Z</time>
      </trkpt>
      <trkpt lat="50.571342" lon="9.518300">
        <ele>409.810388</ele>
        <time>2025-03-13T11:59:33.169Z</time>
      </trkpt>
      <trkpt lat="50.571298" lon="9.518172">
        <ele>410.317747</ele>
        <time>2025-03-13T11:59:40.167Z</time>
      </trkpt>
      <trkpt lat="50.571270" lon="9.518037">
        <ele>410.812802</ele>
        <time>2025-03-13T11:59:48.165Z</time>
      </trkpt>
      <trkpt lat="50.571247" lon="9.517897">
        <ele>411.316892</ele>
        <time>2025-03-13T11:59:56.163Z</time>
      </trkpt>
      <trkpt lat="50.571203" lon="9.517755">
        <ele>411.867661</ele>
        <time>2025-03-13T12:00:05.170Z</time>
      </trkpt>
      <trkpt lat="50.571152" lon="9.517617">
        <ele>412.424230</ele>
        <time>2025-03-13T12:00:17.168Z</time>
      </trkpt>
      <trkpt lat="50.571127" lon="9.517473">
        <ele>412.944619</ele>
        <time>2025-03-13T12:00:24.163Z</time>
      </trkpt>
      <trkpt lat="50.571108" lon="9.517317">
        <ele>413.498331</ele>
        <time>2025-03-13T12:00:33.172Z</time>
      </trkpt>
      <trkpt lat="50.571105" lon="9.517168">
        <ele>414.017995</ele>
        <time>2025-03-13T12:00:42.136Z</time>
      </trkpt>
      <trkpt lat="50.571107" lon="9.517013">
        <ele>414.558424</ele>
        <time>2025-03-13T12:00:50.170Z</time>
      </trkpt>
      <trkpt lat="50.571108" lon="9.516858">
        <ele>415.098770</ele>
        <time>2025-03-13T12:00:58.163Z</time>
      </trkpt>
      <trkpt lat="50.571133" lon="9.516715">
        <ele>415.615797</ele>
        <time>2025-03-13T12:01:08.164Z</time>
      </trkpt>
      <trkpt lat="50.571128" lon="9.516562">
        <ele>416.149848</ele>
        <time>2025-03-13T12:01:17.167Z</time>
      </trkpt>
      <trkpt lat="50.571122" lon="9.516412">
        <ele>416.673772</ele>
        <time>2025-03-13T12:01:27.167Z</time>
      </trkpt>
      <trkpt lat="50.571130" lon="9.516267">
        <ele>417.181134</ele>
        <time>2025-03-13T12:01:37.173Z</time>
      </trkpt>
      <trkpt lat="50.571153" lon="9.516128">
        <ele>417.681851</ele>
        <time>2025-03-13T12:01:48.169Z</time>
      </trkpt>
      <trkpt lat="50.571207" lon="9.515983">
        <ele>418.267796</ele>
        <time>2025-03-13T12:01:59.172Z</time>
      </trkpt>
      <trkpt lat="50.571282" lon="9.515902">
        <ele>418.651274</ele>
        <time>2025-03-13T12:02:06.163Z</time>
      </trkpt>
      <trkpt lat="50.571303" lon="9.515748">
        <ele>419.051845</ele>
        <time>2025-03-13T12:07:38.159Z</time>
      </trkpt>
      <trkpt lat="50.571305" lon="9.515587">
        <ele>419.461372</ele>
        <time>2025-03-13T12:07:54.149Z</time>
      </trkpt>
      <trkpt lat="50.571337" lon="9.515735">
        <ele>419.858972</ele>
        <time>2025-03-13T12:08:49.157Z</time>
      </trkpt>
      <trkpt lat="50.571318" lon="9.515892">
        <ele>420.265431</ele>
        <time>2025-03-13T12:09:15.160Z</time>
      </trkpt>
      <trkpt lat="50.571292" lon="9.516028">
        <ele>420.626630</ele>
        <time>2025-03-13T12:09:22.160Z</time>
      </trkpt>
      <trkpt lat="50.571312" lon="9.516188">
        <ele>421.041341</ele>
        <time>2025-03-13T12:09:28.161Z</time>
      </trkpt>
      <trkpt lat="50.571343" lon="9.516348">
        <ele>421.466758</ele>
        <time>2025-03-13T12:10:25.163Z</time>
      </trkpt>
      <trkpt lat="50.571248" lon="9.516438">
        <ele>421.910710</ele>
        <time>2025-03-13T12:10:38.141Z</time>
      </trkpt>
      <trkpt lat="50.571228" lon="9.516298">
        <ele>422.275648</ele>
        <time>2025-03-13T12:10:45.135Z</time>
      </trkpt>
      <trkpt lat="50.571287" lon="9.516175">
        <ele>422.667647</ele>
        <time>2025-03-13T12:10:57.152Z</time>
      </trkpt>
      <trkpt lat="50.571303" lon="9.516015">
        <ele>423.079565</ele>
        <time>2025-03-13T12:11:17.154Z</time>
      </trkpt>
      <trkpt lat="50.571312" lon="9.515843">
        <ele>423.518470</ele>
        <time>2025-03-13T12:13:39.166Z</time>
      </trkpt>
      <trkpt lat="50.571308" lon="9.516105">
        <ele>424.184970</ele>
        <time>2025-03-13T12:14:38.161Z</time>
      </trkpt>
      <trkpt lat="50.571298" lon="9.515857">
        <ele>424.816942</ele>
        <time>2025-03-13T12:14:39.153Z</time>
      </trkpt>
      <trkpt lat="50.571297" lon="9.515700">
        <ele>425.216238</ele>
        <time>2025-03-13T12:14:40.157Z</time>
      </trkpt>
      <trkpt lat="50.571323" lon="9.515855">
        <ele>425.667034</ele>
        <time>2025-03-13T12:14:54.156Z</time>
      </trkpt>
      <trkpt lat="50.571292" lon="9.516017">
        <ele>426.321791</ele>
        <time>2025-03-13T12:15:20.161Z</time>
      </trkpt>
      <trkpt lat="50.571300" lon="9.515842">
        <ele>427.000770</ele>
        <time>2025-03-13T12:15:41.161Z</time>
      </trkpt>
      <trkpt lat="50.571323" lon="9.515993">
        <ele>427.601691</ele>
        <time>2025-03-13T12:16:10.147Z</time>
      </trkpt>
      <trkpt lat="50.571290" lon="9.515860">
        <ele>428.154266</ele>
        <time>2025-03-13T12:17:10.147Z</time>
      </trkpt>
      <trkpt lat="50.571337" lon="9.515727">
        <ele>428.743266</ele>
        <time>2025-03-13T12:17:49.158Z</time>
      </trkpt>
      <trkpt lat="50.571310" lon="9.515863">
        <ele>429.294682</ele>
        <time>2025-03-13T12:18:09.156Z</time>
      </trkpt>
      <trkpt lat="50.571300" lon="9.516007">
        <ele>429.855264</ele>
        <time>2025-03-13T12:18:26.162Z</time>
      </trkpt>
      <trkpt lat="50.571190" lon="9.515857">
        <ele>430.741938</ele>
        <time>2025-03-13T12:24:03.138Z</time>
      </trkpt>
      <trkpt lat="50.571203" lon="9.515708">
        <ele>431.323965</ele>
        <time>2025-03-13T12:24:17.157Z</time>
      </trkpt>
      <trkpt lat="50.571245" lon="9.515577">
        <ele>431.891850</ele>
        <time>2025-03-13T12:24:26.159Z</time>
      </trkpt>
      <trkpt lat="50.571263" lon="9.515425">
        <ele>432.490209</ele>
        <time>2025-03-13T12:24:37.159Z</time>
      </trkpt>
      <trkpt lat="50.571328" lon="9.515323">
        <ele>433.049377</ele>
        <time>2025-03-13T12:24:49.150Z</time>
      </trkpt>
      <trkpt lat="50.571342" lon="9.515173">
        <ele>433.636091</ele>
        <time>2025-03-13T12:25:01.159Z</time>
      </trkpt>
      <trkpt lat="50.571383" lon="9.515037">
        <ele>434.218674</ele>
        <time>2025-03-13T12:25:14.152Z</time>
      </trkpt>
      <trkpt lat="50.571392" lon="9.514892">
        <ele>434.782478</ele>
        <time>2025-03-13T12:25:24.155Z</time>
      </trkpt>
      <trkpt lat="50.571423" lon="9.514755">
        <ele>435.345292</ele>
        <time>2025-03-13T12:25:34.143Z</time>
      </trkpt>
      <trkpt lat="50.571463" lon="9.514613">
        <ele>435.946437</ele>
        <time>2025-03-13T12:25:43.157Z</time>
      </trkpt>
      <trkpt lat="50.571463" lon="9.514460">
        <ele>436.535136</ele>
        <time>2025-03-13T12:25:56.153Z</time>
      </trkpt>
      <trkpt lat="50.571477" lon="9.514308">
        <ele>437.076166</ele>
        <time>2025-03-13T12:26:03.147Z</time>
      </trkpt>
      <trkpt lat="50.571453" lon="9.514167">
        <ele>437.590375</ele>
        <time>2025-03-13T12:26:11.152Z</time>
      </trkpt>
      <trkpt lat="50.571457" lon="9.514022">
        <ele>438.101628</ele>
        <time>2025-03-13T12:26:19.160Z</time>
      </trkpt>
      <trkpt lat="50.571460" lon="9.513873">
        <ele>438.626754</ele>
        <time>2025-03-13T12:26:31.159Z</time>
      </trkpt>
      <trkpt lat="50.571427" lon="9.513710">
        <ele>439.229398</ele>
        <time>2025-03-13T12:26:41.146Z</time>
      </trkpt>
      <trkpt lat="50.571402" lon="9.513573">
        <ele>439.731514</ele>
        <time>2025-03-13T12:26:49.152Z</time>
      </trkpt>
      <trkpt lat="50.571392" lon="9.513428">
        <ele>440.245289</ele>
        <time>2025-03-13T12:27:06.151Z</time>
      </trkpt>
      <trkpt lat="50.571362" lon="9.513285">
        <ele>440.775785</ele>
        <time>2025-03-13T12:27:22.146Z</time>
      </trkpt>
      <trkpt lat="50.571422" lon="9.513172">
        <ele>441.294617</ele>
        <time>2025-03-13T12:27:32.154Z</time>
      </trkpt>
      <trkpt lat="50.571448" lon="9.513025">
        <ele>441.832139</ele>
        <time>2025-03-13T12:27:45.156Z</time>
      </trkpt>
      <trkpt lat="50.571468" lon="9.512877">
        <ele>442.365148</ele>
        <time>2025-03-13T12:27:52.165Z</time>
      </trkpt>
      <trkpt lat="50.571505" lon="9.512740">
        <ele>442.889559</ele>
        <time>2025-03-13T12:28:07.148Z</time>
      </trkpt>
      <trkpt lat="50.571537" lon="9.512593">
        <ele>443.436947</ele>
        <time>2025-03-13T12:28:17.153Z</time>
      </trkpt>
      <trkpt lat="50.571607" lon="9.512487">
        <ele>443.975606</ele>
        <time>2025-03-13T12:28:27.151Z</time>
      </trkpt>
      <trkpt lat="50.571665" lon="9.512363">
        <ele>444.518076</ele>
        <time>2025-03-13T12:28:36.150Z</time>
      </trkpt>
      <trkpt lat="50.571738" lon="9.512272">
        <ele>445.034489</ele>
        <time>2025-03-13T12:28:45.158Z</time>
      </trkpt>
      <trkpt lat="50.571812" lon="9.512175">
        <ele>445.568532</ele>
        <time>2025-03-13T12:28:56.154Z</time>
      </trkpt>
      <trkpt lat="50.571902" lon="9.512110">
        <ele>446.117709</ele>
        <time>2025-03-13T12:29:06.151Z</time>
      </trkpt>
      <trkpt lat="50.571983" lon="9.512025">
        <ele>446.829682</ele>
        <time>2025-03-13T12:29:16.154Z</time>
      </trkpt>
      <trkpt lat="50.572012" lon="9.511877">
        <ele>447.894093</ele>
        <time>2025-03-13T12:29:24.146Z</time>
      </trkpt>
      <trkpt lat="50.572043" lon="9.511743">
        <ele>448.874176</ele>
        <time>2025-03-13T12:29:34.155Z</time>
      </trkpt>
      <trkpt lat="50.572082" lon="9.511615">
        <ele>449.849822</ele>
        <time>2025-03-13T12:29:47.170Z</time>
      </trkpt>
      <trkpt lat="50.572095" lon="9.511453">
        <ele>450.971988</ele>
        <time>2025-03-13T12:29:56.162Z</time>
      </trkpt>
      <trkpt lat="50.572095" lon="9.511302">
        <ele>452.009707</ele>
        <time>2025-03-13T12:30:05.152Z</time>
      </trkpt>
      <trkpt lat="50.572098" lon="9.511157">
        <ele>453.006720</ele>
        <time>2025-03-13T12:30:14.147Z</time>
      </trkpt>
      <trkpt lat="50.572088" lon="9.511015">
        <ele>453.988569</ele>
        <time>2025-03-13T12:30:23.162Z</time>
      </trkpt>
      <trkpt lat="50.572078" lon="9.510862">
        <ele>455.045586</ele>
        <time>2025-03-13T12:30:32.152Z</time>
      </trkpt>
      <trkpt lat="50.572107" lon="9.510723">
        <ele>456.051058</ele>
        <time>2025-03-13T12:30:44.141Z</time>
      </trkpt>
      <trkpt lat="50.572125" lon="9.510578">
        <ele>457.066400</ele>
        <time>2025-03-13T12:30:52.170Z</time>
      </trkpt>
      <trkpt lat="50.572113" lon="9.510433">
        <ele>458.071308</ele>
        <time>2025-03-13T12:31:01.170Z</time>
      </trkpt>
      <trkpt lat="50.572088" lon="9.510290">
        <ele>459.090601</ele>
        <time>2025-03-13T12:31:12.152Z</time>
      </trkpt>
      <trkpt lat="50.572075" lon="9.510148">
        <ele>460.076556</ele>
        <time>2025-03-13T12:31:19.149Z</time>
      </trkpt>
      <trkpt lat="50.572103" lon="9.509995">
        <ele>461.170801</ele>
        <time>2025-03-13T12:31:30.146Z</time>
      </trkpt>
      <trkpt lat="50.572105" lon="9.509845">
        <ele>462.201874</ele>
        <time>2025-03-13T12:31:41.158Z</time>
      </trkpt>
      <trkpt lat="50.572105" lon="9.509683">
        <ele>463.315188</ele>
        <time>2025-03-13T12:31:50.154Z</time>
      </trkpt>
      <trkpt lat="50.572078" lon="9.509543">
        <ele>464.320692</ele>
        <time>2025-03-13T12:31:57.149Z</time>
      </trkpt>
      <trkpt lat="50.572042" lon="9.509400">
        <ele>465.377823</ele>
        <time>2025-03-13T12:32:08.152Z</time>
      </trkpt>
      <trkpt lat="50.572033" lon="9.509253">
        <ele>465.865453</ele>
        <time>2025-03-13T12:32:17.158Z</time>
      </trkpt>
      <trkpt lat="50.572023" lon="9.509100">
        <ele>465.693469</ele>
        <time>2025-03-13T12:32:28.145Z</time>
      </trkpt>
      <trkpt lat="50.571967" lon="9.508970">
        <ele>465.517823</ele>
        <time>2025-03-13T12:33:23.148Z</time>
      </trkpt>
      <trkpt lat="50.571945" lon="9.508830">
        <ele>465.356557</ele>
        <time>2025-03-13T12:33:34.158Z</time>
      </trkpt>
      <trkpt lat="50.571910" lon="9.508680">
        <ele>465.177869</ele>
        <time>2025-03-13T12:33:41.152Z</time>
      </trkpt>
      <trkpt lat="50.571878" lon="9.508527">
        <ele>464.997749</ele>
        <time>2025-03-13T12:33:49.145Z</time>
      </trkpt>
      <trkpt lat="50.571830" lon="9.508395">
        <ele>464.827668</ele>
        <time>2025-03-13T12:33:58.143Z</time>
      </trkpt>
      <trkpt lat="50.571802" lon="9.508252">
        <ele>464.660341</ele>
        <time>2025-03-13T12:34:06.143Z</time>
      </trkpt>
      <trkpt lat="50.571777" lon="9.508115">
        <ele>464.500952</ele>
        <time>2025-03-13T12:34:15.149Z</time>
      </trkpt>
      <trkpt lat="50.571737" lon="9.507982">
        <ele>464.336401</ele>
        <time>2025-03-13T12:34:25.141Z</time>
      </trkpt>
      <trkpt lat="50.571698" lon="9.507808">
        <ele>464.130076</ele>
        <time>2025-03-13T12:34:53.151Z</time>
      </trkpt>
      <trkpt lat="50.571633" lon="9.507695">
        <ele>463.959600</ele>
        <time>2025-03-13T12:34:59.148Z</time>
      </trkpt>
      <trkpt lat="50.571552" lon="9.507602">
        <ele>463.783102</ele>
        <time>2025-03-13T12:35:07.144Z</time>
      </trkpt>
      <trkpt lat="50.571473" lon="9.507523">
        <ele>463.618332</ele>
        <time>2025-03-13T12:35:34.144Z</time>
      </trkpt>
      <trkpt lat="50.571397" lon="9.507432">
        <ele>463.450230</ele>
        <time>2025-03-13T12:35:41.160Z</time>
      </trkpt>
      <trkpt lat="50.571315" lon="9.507357">
        <ele>463.283269</ele>
        <time>2025-03-13T12:35:49.144Z</time>
      </trkpt>
      <trkpt lat="50.571240" lon="9.507268">
        <ele>463.117920</ele>
        <time>2025-03-13T12:35:58.162Z</time>
      </trkpt>
      <trkpt lat="50.571148" lon="9.507208">
        <ele>462.942598</ele>
        <time>2025-03-13T12:36:06.154Z</time>
      </trkpt>
      <trkpt lat="50.571067" lon="9.507138">
        <ele>462.779920</ele>
        <time>2025-03-13T12:36:16.147Z</time>
      </trkpt>
      <trkpt lat="50.570977" lon="9.507152">
        <ele>462.126024</ele>
        <time>2025-03-13T12:36:25.146Z</time>
      </trkpt>
      <trkpt lat="50.570902" lon="9.507230">
        <ele>461.452197</ele>
        <time>2025-03-13T12:36:33.152Z</time>
      </trkpt>
      <trkpt lat="50.570815" lon="9.507302">
        <ele>460.715386</ele>
        <time>2025-03-13T12:36:40.155Z</time>
      </trkpt>
      <trkpt lat="50.570732" lon="9.507368">
        <ele>460.018317</ele>
        <time>2025-03-13T12:36:50.149Z</time>
      </trkpt>
      <trkpt lat="50.570643" lon="9.507450">
        <ele>459.245280</ele>
        <time>2025-03-13T12:37:00.139Z</time>
      </trkpt>
      <trkpt lat="50.570563" lon="9.507517">
        <ele>458.565986</ele>
        <time>2025-03-13T12:37:09.149Z</time>
      </trkpt>
      <trkpt lat="50.570480" lon="9.507578">
        <ele>457.879319</ele>
        <time>2025-03-13T12:37:17.151Z</time>
      </trkpt>
      <trkpt lat="50.570390" lon="9.507657">
        <ele>457.106857</ele>
        <time>2025-03-13T12:37:27.148Z</time>
      </trkpt>
      <trkpt lat="50.570305" lon="9.507722">
        <ele>456.398464</ele>
        <time>2025-03-13T12:37:36.153Z</time>
      </trkpt>
      <trkpt lat="50.570227" lon="9.507805">
        <ele>455.692709</ele>
        <time>2025-03-13T12:37:44.162Z</time>
      </trkpt>
      <trkpt lat="50.570138" lon="9.507863">
        <ele>454.970617</ele>
        <time>2025-03-13T12:37:53.146Z</time>
      </trkpt>
      <trkpt lat="50.570045" lon="9.507935">
        <ele>454.193706</ele>
        <time>2025-03-13T12:38:01.152Z</time>
      </trkpt>
      <trkpt lat="50.569958" lon="9.508012">
        <ele>453.445518</ele>
        <time>2025-03-13T12:38:09.159Z</time>
      </trkpt>
      <trkpt lat="50.569875" lon="9.508067">
        <ele>452.770437</ele>
        <time>2025-03-13T12:38:19.152Z</time>
      </trkpt>
      <trkpt lat="50.569787" lon="9.508117">
        <ele>452.069093</ele>
        <time>2025-03-13T12:38:28.145Z</time>
      </trkpt>
      <trkpt lat="50.569708" lon="9.508200">
        <ele>451.357112</ele>
        <time>2025-03-13T12:38:35.143Z</time>
      </trkpt>
      <trkpt lat="50.569620" lon="9.508270">
        <ele>450.617995</ele>
        <time>2025-03-13T12:38:45.152Z</time>
      </trkpt>
      <trkpt lat="50.569535" lon="9.508325">
        <ele>449.929069</ele>
        <time>2025-03-13T12:38:54.151Z</time>
      </trkpt>
      <trkpt lat="50.569452" lon="9.508383">
        <ele>449.247487</ele>
        <time>2025-03-13T12:39:01.168Z</time>
      </trkpt>
      <trkpt lat="50.569365" lon="9.508448">
        <ele>448.510739</ele>
        <time>2025-03-13T12:39:11.161Z</time>
      </trkpt>
      <trkpt lat="50.569282" lon="9.508520">
        <ele>447.785729</ele>
        <time>2025-03-13T12:39:19.153Z</time>
      </trkpt>
      <trkpt lat="50.569200" lon="9.508587">
        <ele>447.078926</ele>
        <time>2025-03-13T12:39:28.149Z</time>
      </trkpt>
      <trkpt lat="50.569113" lon="9.508653">
        <ele>446.340081</ele>
        <time>2025-03-13T12:39:37.156Z</time>
      </trkpt>
      <trkpt lat="50.569027" lon="9.508718">
        <ele>445.610237</ele>
        <time>2025-03-13T12:39:48.149Z</time>
      </trkpt>
      <trkpt lat="50.568938" lon="9.508780">
        <ele>444.865653</ele>
        <time>2025-03-13T12:40:02.152Z</time>
      </trkpt>
      <trkpt lat="50.568858" lon="9.508867">
        <ele>444.121788</ele>
        <time>2025-03-13T12:40:10.154Z</time>
      </trkpt>
      <trkpt lat="50.568763" lon="9.508897">
        <ele>443.380499</ele>
        <time>2025-03-13T12:40:21.179Z</time>
      </trkpt>
      <trkpt lat="50.568667" lon="9.508967">
        <ele>442.571090</ele>
        <time>2025-03-13T12:40:28.152Z</time>
      </trkpt>
      <trkpt lat="50.568590" lon="9.509057">
        <ele>441.837395</ele>
        <time>2025-03-13T12:40:36.159Z</time>
      </trkpt>
      <trkpt lat="50.568508" lon="9.509145">
        <ele>441.078162</ele>
        <time>2025-03-13T12:40:43.143Z</time>
      </trkpt>
      <trkpt lat="50.568417" lon="9.509202">
        <ele>440.328876</ele>
        <time>2025-03-13T12:40:53.143Z</time>
      </trkpt>
      <trkpt lat="50.568330" lon="9.509275">
        <ele>439.574641</ele>
        <time>2025-03-13T12:41:02.149Z</time>
      </trkpt>
      <trkpt lat="50.568245" lon="9.509330">
        <ele>438.871555</ele>
        <time>2025-03-13T12:41:09.150Z</time>
      </trkpt>
      <trkpt lat="50.568157" lon="9.509390">
        <ele>438.137875</ele>
        <time>2025-03-13T12:41:16.147Z</time>
      </trkpt>
      <trkpt lat="50.568073" lon="9.509447">
        <ele>437.438069</ele>
        <time>2025-03-13T12:41:25.162Z</time>
      </trkpt>
      <trkpt lat="50.568010" lon="9.509548">
        <ele>436.750173</ele>
        <time>2025-03-13T12:41:37.146Z</time>
      </trkpt>
      <trkpt lat="50.567992" lon="9.509730">
        <ele>435.855102</ele>
        <time>2025-03-13T12:42:15.158Z</time>
      </trkpt>
      <trkpt lat="50.568002" lon="9.509877">
        <ele>435.143380</ele>
        <time>2025-03-13T12:42:23.150Z</time>
      </trkpt>
      <trkpt lat="50.568020" lon="9.510033">
        <ele>434.386090</ele>
        <time>2025-03-13T12:42:33.154Z</time>
      </trkpt>
      <trkpt lat="50.568037" lon="9.510185">
        <ele>433.648931</ele>
        <time>2025-03-13T12:42:42.160Z</time>
      </trkpt>
      <trkpt lat="50.568035" lon="9.510337">
        <ele>432.922786</ele>
        <time>2025-03-13T12:42:50.158Z</time>
      </trkpt>
      <trkpt lat="50.568027" lon="9.510478">
        <ele>432.246654</ele>
        <time>2025-03-13T12:42:58.154Z</time>
      </trkpt>
      <trkpt lat="50.568073" lon="9.510745">
        <ele>430.925316</ele>
        <time>2025-03-13T12:43:26.158Z</time>
      </trkpt>
      <trkpt lat="50.568077" lon="9.510890">
        <ele>430.232108</ele>
        <time>2025-03-13T12:43:36.142Z</time>
      </trkpt>
      <trkpt lat="50.568125" lon="9.511048">
        <ele>429.395583</ele>
        <time>2025-03-13T12:44:08.154Z</time>
      </trkpt>
      <trkpt lat="50.568127" lon="9.511190">
        <ele>428.717191</ele>
        <time>2025-03-13T12:44:17.149Z</time>
      </trkpt>
      <trkpt lat="50.568137" lon="9.511337">
        <ele>428.011068</ele>
        <time>2025-03-13T12:44:26.146Z</time>
      </trkpt>
      <trkpt lat="50.568150" lon="9.511482">
        <ele>427.311649</ele>
        <time>2025-03-13T12:44:37.156Z</time>
      </trkpt>
      <trkpt lat="50.568152" lon="9.511633">
        <ele>426.590281</ele>
        <time>2025-03-13T12:44:45.152Z</time>
      </trkpt>
      <trkpt lat="50.568165" lon="9.511777">
        <ele>425.895590</ele>
        <time>2025-03-13T12:44:55.159Z</time>
      </trkpt>
      <trkpt lat="50.568173" lon="9.511937">
        <ele>425.129029</ele>
        <time>2025-03-13T12:45:04.150Z</time>
      </trkpt>
      <trkpt lat="50.568138" lon="9.512080">
        <ele>424.397072</ele>
        <time>2025-03-13T12:45:12.152Z</time>
      </trkpt>
      <trkpt lat="50.568112" lon="9.512228">
        <ele>423.663649</ele>
        <time>2025-03-13T12:45:23.144Z</time>
      </trkpt>
      <trkpt lat="50.568092" lon="9.512373">
        <ele>422.954953</ele>
        <time>2025-03-13T12:45:30.152Z</time>
      </trkpt>
      <trkpt lat="50.568057" lon="9.512505">
        <ele>422.271759</ele>
        <time>2025-03-13T12:45:36.146Z</time>
      </trkpt>
      <trkpt lat="50.568020" lon="9.512635">
        <ele>421.650265</ele>
        <time>2025-03-13T12:45:43.155Z</time>
      </trkpt>
      <trkpt lat="50.567983" lon="9.512785">
        <ele>420.991774</ele>
        <time>2025-03-13T12:45:50.151Z</time>
      </trkpt>
      <trkpt lat="50.567950" lon="9.512920">
        <ele>420.399827</ele>
        <time>2025-03-13T12:45:59.145Z</time>
      </trkpt>
      <trkpt lat="50.567943" lon="9.513068">
        <ele>419.792506</ele>
        <time>2025-03-13T12:46:08.150Z</time>
      </trkpt>
      <trkpt lat="50.567893" lon="9.513207">
        <ele>419.138806</ele>
        <time>2025-03-13T12:46:17.149Z</time>
      </trkpt>
      <trkpt lat="50.567867" lon="9.513358">
        <ele>418.498580</ele>
        <time>2025-03-13T12:46:24.147Z</time>
      </trkpt>
      <trkpt lat="50.567840" lon="9.513498">
        <ele>417.899845</ele>
        <time>2025-03-13T12:46:34.149Z</time>
      </trkpt>
      <trkpt lat="50.567818" lon="9.513643">
        <ele>417.289781</ele>
        <time>2025-03-13T12:46:43.141Z</time>
      </trkpt>
      <trkpt lat="50.567808" lon="9.513803">
        <ele>416.631865</ele>
        <time>2025-03-13T12:46:54.147Z</time>
      </trkpt>
      <trkpt lat="50.567785" lon="9.513950">
        <ele>416.012328</ele>
        <time>2025-03-13T12:47:03.155Z</time>
      </trkpt>
      <trkpt lat="50.567817" lon="9.514090">
        <ele>415.403452</ele>
        <time>2025-03-13T12:47:11.161Z</time>
      </trkpt>
      <trkpt lat="50.567832" lon="9.514238">
        <ele>414.790143</ele>
        <time>2025-03-13T12:47:33.155Z</time>
      </trkpt>
      <trkpt lat="50.567882" lon="9.514377">
        <ele>414.136442</ele>
        <time>2025-03-13T12:47:43.146Z</time>
      </trkpt>
      <trkpt lat="50.567928" lon="9.514512">
        <ele>413.509521</ele>
        <time>2025-03-13T12:47:53.156Z</time>
      </trkpt>
      <trkpt lat="50.567955" lon="9.514653">
        <ele>412.906869</ele>
        <time>2025-03-13T12:48:00.149Z</time>
      </trkpt>
      <trkpt lat="50.567997" lon="9.514792">
        <ele>412.276971</ele>
        <time>2025-03-13T12:48:09.147Z</time>
      </trkpt>
      <trkpt lat="50.568008" lon="9.514935">
        <ele>411.687511</ele>
        <time>2025-03-13T12:48:19.150Z</time>
      </trkpt>
      <trkpt lat="50.568035" lon="9.515073">
        <ele>411.096604</ele>
        <time>2025-03-13T12:48:27.148Z</time>
      </trkpt>
      <trkpt lat="50.568050" lon="9.515233">
        <ele>410.434761</ele>
        <time>2025-03-13T12:48:35.148Z</time>
      </trkpt>
      <trkpt lat="50.568075" lon="9.515380">
        <ele>409.782674</ele>
        <time>2025-03-13T12:48:43.146Z</time>
      </trkpt>
      <trkpt lat="50.568087" lon="9.515528">
        <ele>409.142375</ele>
        <time>2025-03-13T12:48:52.148Z</time>
      </trkpt>
      <trkpt lat="50.568098" lon="9.515675">
        <ele>408.507159</ele>
        <time>2025-03-13T12:49:03.142Z</time>
      </trkpt>
      <trkpt lat="50.568085" lon="9.515850">
        <ele>407.751024</ele>
        <time>2025-03-13T12:49:28.147Z</time>
      </trkpt>
      <trkpt lat="50.568100" lon="9.516007">
        <ele>407.069676</ele>
        <time>2025-03-13T12:49:44.160Z</time>
      </trkpt>
      <trkpt lat="50.568095" lon="9.516158">
        <ele>406.420777</ele>
        <time>2025-03-13T12:49:54.153Z</time>
      </trkpt>
      <trkpt lat="50.568108" lon="9.516318">
        <ele>405.728539</ele>
        <time>2025-03-13T12:50:03.157Z</time>
      </trkpt>
      <trkpt lat="50.568125" lon="9.516468">
        <ele>405.074644</ele>
        <time>2025-03-13T12:50:14.148Z</time>
      </trkpt>
      <trkpt lat="50.568122" lon="9.516612">
        <ele>404.456334</ele>
        <time>2025-03-13T12:50:23.152Z</time>
      </trkpt>
      <trkpt lat="50.568132" lon="9.516757">
        <ele>403.830407</ele>
        <time>2025-03-13T12:50:30.142Z</time>
      </trkpt>
      <trkpt lat="50.568125" lon="9.516898">
        <ele>403.223458</ele>
        <time>2025-03-13T12:50:38.155Z</time>
      </trkpt>
      <trkpt lat="50.568118" lon="9.517040">
        <ele>402.612230</ele>
        <time>2025-03-13T12:50:47.151Z</time>
      </trkpt>
      <trkpt lat="50.568102" lon="9.517182">
        <ele>401.993320</ele>
        <time>2025-03-13T12:50:54.152Z</time>
      </trkpt>
      <trkpt lat="50.568105" lon="9.517335">
        <ele>401.336405</ele>
        <time>2025-03-13T12:51:01.155Z</time>
      </trkpt>
      <trkpt lat="50.568093" lon="9.517480">
        <ele>400.708875</ele>
        <time>2025-03-13T12:51:09.164Z</time>
      </trkpt>
      <trkpt lat="50.568122" lon="9.517618">
        <ele>400.085073</ele>
        <time>2025-03-13T12:51:28.143Z</time>
      </trkpt>
      <trkpt lat="50.568138" lon="9.517758">
        <ele>399.474613</ele>
        <time>2025-03-13T12:51:35.146Z</time>
      </trkpt>
      <trkpt lat="50.568182" lon="9.517885">
        <ele>398.853783</ele>
        <time>2025-03-13T12:51:42.157Z</time>
      </trkpt>
      <trkpt lat="50.568205" lon="9.518035">
        <ele>398.200280</ele>
        <time>2025-03-13T12:51:50.150Z</time>
      </trkpt>
      <trkpt lat="50.568242" lon="9.518172">
        <ele>397.640730</ele>
        <time>2025-03-13T12:51:59.155Z</time>
      </trkpt>
      <trkpt lat="50.568305" lon="9.518283">
        <ele>397.081221</ele>
        <time>2025-03-13T12:52:08.148Z</time>
      </trkpt>
      <trkpt lat="50.568363" lon="9.518417">
        <ele>396.471736</ele>
        <time>2025-03-13T12:52:17.144Z</time>
      </trkpt>
      <trkpt lat="50.568433" lon="9.518518">
        <ele>395.909862</ele>
        <time>2025-03-13T12:52:25.149Z</time>
      </trkpt>
      <trkpt lat="50.568507" lon="9.518618">
        <ele>395.332773</ele>
        <time>2025-03-13T12:52:35.148Z</time>
      </trkpt>
      <trkpt lat="50.568578" lon="9.518715">
        <ele>394.776490</ele>
        <time>2025-03-13T12:52:45.144Z</time>
      </trkpt>
      <trkpt lat="50.568662" lon="9.518777">
        <ele>394.227496</ele>
        <time>2025-03-13T12:52:53.151Z</time>
      </trkpt>
      <trkpt lat="50.568743" lon="9.518840">
        <ele>393.692870</ele>
        <time>2025-03-13T12:53:00.152Z</time>
      </trkpt>
      <trkpt lat="50.568830" lon="9.518887">
        <ele>393.148571</ele>
        <time>2025-03-13T12:53:10.148Z</time>
      </trkpt>
      <trkpt lat="50.568892" lon="9.518990">
        <ele>392.615201</ele>
        <time>2025-03-13T12:53:24.160Z</time>
      </trkpt>
      <trkpt lat="50.568960" lon="9.519095">
        <ele>392.051575</ele>
        <time>2025-03-13T12:53:32.142Z</time>
      </trkpt>
      <trkpt lat="50.569005" lon="9.519218">
        <ele>391.518060</ele>
        <time>2025-03-13T12:53:42.158Z</time>
      </trkpt>
      <trkpt lat="50.569072" lon="9.519333">
        <ele>390.931524</ele>
        <time>2025-03-13T12:53:51.165Z</time>
      </trkpt>
      <trkpt lat="50.569137" lon="9.519450">
        <ele>390.347285</ele>
        <time>2025-03-13T12:54:00.155Z</time>
      </trkpt>
      <trkpt lat="50.569190" lon="9.519582">
        <ele>389.760334</ele>
        <time>2025-03-13T12:54:10.145Z</time>
      </trkpt>
      <trkpt lat="50.569233" lon="9.519707">
        <ele>389.226031</ele>
        <time>2025-03-13T12:54:23.151Z</time>
      </trkpt>
      <trkpt lat="50.569293" lon="9.519835">
        <ele>388.628102</ele>
        <time>2025-03-13T12:54:32.154Z</time>
      </trkpt>
      <trkpt lat="50.569343" lon="9.519955">
        <ele>388.088686</ele>
        <time>2025-03-13T12:54:39.147Z</time>
      </trkpt>
      <trkpt lat="50.569395" lon="9.520082">
        <ele>387.371177</ele>
        <time>2025-03-13T12:54:49.142Z</time>
      </trkpt>
      <trkpt lat="50.569453" lon="9.520192">
        <ele>386.007661</ele>
        <time>2025-03-13T12:54:59.148Z</time>
      </trkpt>
      <trkpt lat="50.569492" lon="9.520330">
        <ele>384.567091</ele>
        <time>2025-03-13T12:55:10.151Z</time>
      </trkpt>
      <trkpt lat="50.569553" lon="9.520443">
        <ele>383.152693</ele>
        <time>2025-03-13T12:55:20.141Z</time>
      </trkpt>
      <trkpt lat="50.569562" lon="9.520588">
        <ele>381.763185</ele>
        <time>2025-03-13T12:55:31.154Z</time>
      </trkpt>
      <trkpt lat="50.569602" lon="9.520727">
        <ele>380.307766</ele>
        <time>2025-03-13T12:55:41.170Z</time>
      </trkpt>
      <trkpt lat="50.569633" lon="9.520863">
        <ele>378.929683</ele>
        <time>2025-03-13T12:55:49.152Z</time>
      </trkpt>
      <trkpt lat="50.569690" lon="9.520980">
        <ele>377.523351</ele>
        <time>2025-03-13T12:55:57.141Z</time>
      </trkpt>
      <trkpt lat="50.569747" lon="9.521113">
        <ele>375.993119</ele>
        <time>2025-03-13T12:56:05.149Z</time>
      </trkpt>
      <trkpt lat="50.569810" lon="9.521222">
        <ele>374.587539</ele>
        <time>2025-03-13T12:56:14.148Z</time>
      </trkpt>
      <trkpt lat="50.569872" lon="9.521330">
        <ele>373.199112</ele>
        <time>2025-03-13T12:56:22.148Z</time>
      </trkpt>
      <trkpt lat="50.569887" lon="9.521470">
        <ele>371.845023</ele>
        <time>2025-03-13T12:56:34.154Z</time>
      </trkpt>
      <trkpt lat="50.569938" lon="9.521597">
        <ele>370.411989</ele>
        <time>2025-03-13T12:56:44.150Z</time>
      </trkpt>
      <trkpt lat="50.569992" lon="9.521722">
        <ele>368.970197</ele>
        <time>2025-03-13T12:56:54.150Z</time>
      </trkpt>
      <trkpt lat="50.570057" lon="9.521842">
        <ele>367.466037</ele>
        <time>2025-03-13T12:57:03.147Z</time>
      </trkpt>
      <trkpt lat="50.570092" lon="9.521990">
        <ele>365.959850</ele>
        <time>2025-03-13T12:57:14.147Z</time>
      </trkpt>
      <trkpt lat="50.570150" lon="9.522115">
        <ele>364.483445</ele>
        <time>2025-03-13T12:57:23.151Z</time>
      </trkpt>
      <trkpt lat="50.570193" lon="9.522245">
        <ele>363.085541</ele>
        <time>2025-03-13T12:57:33.148Z</time>
      </trkpt>
      <trkpt lat="50.570270" lon="9.522352">
        <ele>361.543370</ele>
        <time>2025-03-13T12:57:40.148Z</time>
      </trkpt>
      <trkpt lat="50.570340" lon="9.522460">
        <ele>360.469071</ele>
        <time>2025-03-13T12:57:46.146Z</time>
      </trkpt>
      <trkpt lat="50.570400" lon="9.522582">
        <ele>360.085161</ele>
        <time>2025-03-13T12:57:53.147Z</time>
      </trkpt>
      <trkpt lat="50.570403" lon="9.522728">
        <ele>359.721712</ele>
        <time>2025-03-13T12:58:04.147Z</time>
      </trkpt>
      <trkpt lat="50.570467" lon="9.522833">
        <ele>359.359622</ele>
        <time>2025-03-13T12:58:13.167Z</time>
      </trkpt>
      <trkpt lat="50.570522" lon="9.522968">
        <ele>358.960567</ele>
        <time>2025-03-13T12:58:20.152Z</time>
      </trkpt>
      <trkpt lat="50.570593" lon="9.523080">
        <ele>358.566848</ele>
        <time>2025-03-13T12:58:28.153Z</time>
      </trkpt>
      <trkpt lat="50.570630" lon="9.523217">
        <ele>358.196445</ele>
        <time>2025-03-13T12:58:41.163Z</time>
      </trkpt>
      <trkpt lat="50.570660" lon="9.523360">
        <ele>357.821745</ele>
        <time>2025-03-13T12:58:49.150Z</time>
      </trkpt>
      <trkpt lat="50.570715" lon="9.523500">
        <ele>357.412165</ele>
        <time>2025-03-13T12:58:58.160Z</time>
      </trkpt>
      <trkpt lat="50.570770" lon="9.523620">
        <ele>357.043973</ele>
        <time>2025-03-13T12:59:06.153Z</time>
      </trkpt>
      <trkpt lat="50.570837" lon="9.523728">
        <ele>356.668347</ele>
        <time>2025-03-13T12:59:16.148Z</time>
      </trkpt>
      <trkpt lat="50.570905" lon="9.523828">
        <ele>356.303840</ele>
        <time>2025-03-13T12:59:23.166Z</time>
      </trkpt>
      <trkpt lat="50.570928" lon="9.523967">
        <ele>355.946456</ele>
        <time>2025-03-13T12:59:30.149Z</time>
      </trkpt>
      <trkpt lat="50.570990" lon="9.524087">
        <ele>355.561576</ele>
        <time>2025-03-13T12:59:38.150Z</time>
      </trkpt>
      <trkpt lat="50.571042" lon="9.524215">
        <ele>355.183529</ele>
        <time>2025-03-13T12:59:47.161Z</time>
      </trkpt>
      <trkpt lat="50.571098" lon="9.524343">
        <ele>354.796813</ele>
        <time>2025-03-13T12:59:56.140Z</time>
      </trkpt>
      <trkpt lat="50.571130" lon="9.524488">
        <ele>354.414888</ele>
        <time>2025-03-13T13:00:08.142Z</time>
      </trkpt>
      <trkpt lat="50.571170" lon="9.524622">
        <ele>354.046503</ele>
        <time>2025-03-13T13:00:19.150Z</time>
      </trkpt>
      <trkpt lat="50.571240" lon="9.524723">
        <ele>353.674556</ele>
        <time>2025-03-13T13:00:27.145Z</time>
      </trkpt>
      <trkpt lat="50.571318" lon="9.524810">
        <ele>353.618911</ele>
        <time>2025-03-13T13:00:34.149Z</time>
      </trkpt>
      <trkpt lat="50.571397" lon="9.524882">
        <ele>353.694530</ele>
        <time>2025-03-13T13:00:41.153Z</time>
      </trkpt>
      <trkpt lat="50.571497" lon="9.524927">
        <ele>353.780689</ele>
        <time>2025-03-13T13:00:49.142Z</time>
      </trkpt>
      <trkpt lat="50.571587" lon="9.524990">
        <ele>353.862284</ele>
        <time>2025-03-13T13:00:56.147Z</time>
      </trkpt>
      <trkpt lat="50.571673" lon="9.525042">
        <ele>353.938601</ele>
        <time>2025-03-13T13:01:03.148Z</time>
      </trkpt>
      <trkpt lat="50.571755" lon="9.525102">
        <ele>354.013509</ele>
        <time>2025-03-13T13:01:12.146Z</time>
      </trkpt>
      <trkpt lat="50.571840" lon="9.525155">
        <ele>354.089246</ele>
        <time>2025-03-13T13:01:22.148Z</time>
      </trkpt>
      <trkpt lat="50.571932" lon="9.525200">
        <ele>354.169054</ele>
        <time>2025-03-13T13:01:32.161Z</time>
      </trkpt>
      <trkpt lat="50.572022" lon="9.525225">
        <ele>354.244763</ele>
        <time>2025-03-13T13:01:44.147Z</time>
      </trkpt>
      <trkpt lat="50.572113" lon="9.525280">
        <ele>354.325513</ele>
        <time>2025-03-13T13:01:56.146Z</time>
      </trkpt>
      <trkpt lat="50.572205" lon="9.525267">
        <ele>354.402034</ele>
        <time>2025-03-13T13:02:05.159Z</time>
      </trkpt>
      <trkpt lat="50.572297" lon="9.525283">
        <ele>354.478713</ele>
        <time>2025-03-13T13:02:18.154Z</time>
      </trkpt>
      <trkpt lat="50.572390" lon="9.525275">
        <ele>354.555871</ele>
        <time>2025-03-13T13:02:26.146Z</time>
      </trkpt>
      <trkpt lat="50.572488" lon="9.525318">
        <ele>354.640150</ele>
        <time>2025-03-13T13:02:33.148Z</time>
      </trkpt>
      <trkpt lat="50.572573" lon="9.525370">
        <ele>354.715695</ele>
        <time>2025-03-13T13:02:41.163Z</time>
      </trkpt>
      <trkpt lat="50.572662" lon="9.525440">
        <ele>354.798111</ele>
        <time>2025-03-13T13:02:52.158Z</time>
      </trkpt>
      <trkpt lat="50.572752" lon="9.525455">
        <ele>354.873086</ele>
        <time>2025-03-13T13:03:00.147Z</time>
      </trkpt>
      <trkpt lat="50.572847" lon="9.525485">
        <ele>354.953354</ele>
        <time>2025-03-13T13:03:09.153Z</time>
      </trkpt>
      <trkpt lat="50.572935" lon="9.525523">
        <ele>355.028947</ele>
        <time>2025-03-13T13:03:23.168Z</time>
      </trkpt>
      <trkpt lat="50.573045" lon="9.525562">
        <ele>353.865190</ele>
        <time>2025-03-13T13:03:43.149Z</time>
      </trkpt>
      <trkpt lat="50.573225" lon="9.525560">
        <ele>351.299529</ele>
        <time>2025-03-13T13:04:19.159Z</time>
      </trkpt>
      <trkpt lat="50.573318" lon="9.525622">
        <ele>349.860053</ele>
        <time>2025-03-13T13:04:28.159Z</time>
      </trkpt>
      <trkpt lat="50.573392" lon="9.525717">
        <ele>348.499168</ele>
        <time>2025-03-13T13:04:52.147Z</time>
      </trkpt>
      <trkpt lat="50.573485" lon="9.525747">
        <ele>347.146077</ele>
        <time>2025-03-13T13:05:00.147Z</time>
      </trkpt>
      <trkpt lat="50.573573" lon="9.525710">
        <ele>345.847838</ele>
        <time>2025-03-13T13:05:07.158Z</time>
      </trkpt>
      <trkpt lat="50.573663" lon="9.525697">
        <ele>344.559653</ele>
        <time>2025-03-13T13:05:19.143Z</time>
      </trkpt>
      <trkpt lat="50.573750" lon="9.525745">
        <ele>343.245694</ele>
        <time>2025-03-13T13:05:30.162Z</time>
      </trkpt>
      <trkpt lat="50.573832" lon="9.525807">
        <ele>341.949158</ele>
        <time>2025-03-13T13:05:37.151Z</time>
      </trkpt>
      <trkpt lat="50.573917" lon="9.525858">
        <ele>340.652650</ele>
        <time>2025-03-13T13:05:44.151Z</time>
      </trkpt>
      <trkpt lat="50.573998" lon="9.525925">
        <ele>339.348526</ele>
        <time>2025-03-13T13:05:53.153Z</time>
      </trkpt>
      <trkpt lat="50.574085" lon="9.526010">
        <ele>337.889175</ele>
        <time>2025-03-13T13:06:04.148Z</time>
      </trkpt>
      <trkpt lat="50.574170" lon="9.526092">
        <ele>336.468342</ele>
        <time>2025-03-13T13:06:14.152Z</time>
      </trkpt>
      <trkpt lat="50.574265" lon="9.526158">
        <ele>334.988336</ele>
        <time>2025-03-13T13:06:23.159Z</time>
      </trkpt>
      <trkpt lat="50.574340" lon="9.526252">
        <ele>333.622041</ele>
        <time>2025-03-13T13:06:33.144Z</time>
      </trkpt>
      <trkpt lat="50.574428" lon="9.526293">
        <ele>332.313994</ele>
        <time>2025-03-13T13:06:39.148Z</time>
      </trkpt>
      <trkpt lat="50.574508" lon="9.526368">
        <ele>330.986928</ele>
        <time>2025-03-13T13:06:50.157Z</time>
      </trkpt>
      <trkpt lat="50.574593" lon="9.526455">
        <ele>329.541940</ele>
        <time>2025-03-13T13:07:02.153Z</time>
      </trkpt>
      <trkpt lat="50.574668" lon="9.526538">
        <ele>328.879088</ele>
        <time>2025-03-13T13:07:11.155Z</time>
      </trkpt>
      <trkpt lat="50.574763" lon="9.526578">
        <ele>328.241262</ele>
        <time>2025-03-13T13:07:20.148Z</time>
      </trkpt>
      <trkpt lat="50.574647" lon="9.526715">
        <ele>327.300762</ele>
        <time>2025-03-13T13:08:24.154Z</time>
      </trkpt>
      <trkpt lat="50.574560" lon="9.526668">
        <ele>326.704186</ele>
        <time>2025-03-13T13:08:33.158Z</time>
      </trkpt>
      <trkpt lat="50.574465" lon="9.526632">
        <ele>326.070416</ele>
        <time>2025-03-13T13:08:43.153Z</time>
      </trkpt>
      <trkpt lat="50.574372" lon="9.526607">
        <ele>325.458483</ele>
        <time>2025-03-13T13:08:52.164Z</time>
      </trkpt>
      <trkpt lat="50.574277" lon="9.526588">
        <ele>324.837355</ele>
        <time>2025-03-13T13:09:00.166Z</time>
      </trkpt>
      <trkpt lat="50.574185" lon="9.526545">
        <ele>324.214903</ele>
        <time>2025-03-13T13:09:14.152Z</time>
      </trkpt>
      <trkpt lat="50.574088" lon="9.526563">
        <ele>323.581400</ele>
        <time>2025-03-13T13:09:23.153Z</time>
      </trkpt>
      <trkpt lat="50.573997" lon="9.526562">
        <ele>322.991152</ele>
        <time>2025-03-13T13:09:30.158Z</time>
      </trkpt>
      <trkpt lat="50.573907" lon="9.526552">
        <ele>322.405953</ele>
        <time>2025-03-13T13:09:38.154Z</time>
      </trkpt>
      <trkpt lat="50.573815" lon="9.526523">
        <ele>321.797395</ele>
        <time>2025-03-13T13:09:46.149Z</time>
      </trkpt>
      <trkpt lat="50.573722" lon="9.526508">
        <ele>321.191033</ele>
        <time>2025-03-13T13:09:55.152Z</time>
      </trkpt>
      <trkpt lat="50.573623" lon="9.526503">
        <ele>320.548581</ele>
        <time>2025-03-13T13:10:03.142Z</time>
      </trkpt>
      <trkpt lat="50.573528" lon="9.526533">
        <ele>319.920134</ele>
        <time>2025-03-13T13:10:12.150Z</time>
      </trkpt>
      <trkpt lat="50.573442" lon="9.526590">
        <ele>319.314929</ele>
        <time>2025-03-13T13:10:19.156Z</time>
      </trkpt>
      <trkpt lat="50.573345" lon="9.526633">
        <ele>318.661321</ele>
        <time>2025-03-13T13:10:27.147Z</time>
      </trkpt>
      <trkpt lat="50.573255" lon="9.526668">
        <ele>318.060033</ele>
        <time>2025-03-13T13:10:36.176Z</time>
      </trkpt>
      <trkpt lat="50.573163" lon="9.526633">
        <ele>317.550317</ele>
        <time>2025-03-13T13:10:53.148Z</time>
      </trkpt>
      <trkpt lat="50.573075" lon="9.526668">
        <ele>317.163101</ele>
        <time>2025-03-13T13:10:59.160Z</time>
      </trkpt>
      <trkpt lat="50.572980" lon="9.526715">
        <ele>316.738278</ele>
        <time>2025-03-13T13:11:09.144Z</time>
      </trkpt>
      <trkpt lat="50.572885" lon="9.526698">
        <ele>316.330382</ele>
        <time>2025-03-13T13:11:18.148Z</time>
      </trkpt>
      <trkpt lat="50.572793" lon="9.526752">
        <ele>315.911509</ele>
        <time>2025-03-13T13:11:25.152Z</time>
      </trkpt>
      <trkpt lat="50.572702" lon="9.526782">
        <ele>315.514868</ele>
        <time>2025-03-13T13:11:34.162Z</time>
      </trkpt>
      <trkpt lat="50.572605" lon="9.526792">
        <ele>315.100162</ele>
        <time>2025-03-13T13:11:44.144Z</time>
      </trkpt>
      <trkpt lat="50.572525" lon="9.526862">
        <ele>314.709708</ele>
        <time>2025-03-13T13:12:10.169Z</time>
      </trkpt>
      <trkpt lat="50.572435" lon="9.526890">
        <ele>314.318328</ele>
        <time>2025-03-13T13:12:30.151Z</time>
      </trkpt>
      <trkpt lat="50.572363" lon="9.526983">
        <ele>313.921031</ele>
        <time>2025-03-13T13:12:37.153Z</time>
      </trkpt>
      <trkpt lat="50.572277" lon="9.527037">
        <ele>313.526041</ele>
        <time>2025-03-13T13:12:51.153Z</time>
      </trkpt>
      <trkpt lat="50.572187" lon="9.527063">
        <ele>313.135676</ele>
        <time>2025-03-13T13:13:15.156Z</time>
      </trkpt>
      <trkpt lat="50.572103" lon="9.527125">
        <ele>312.739896</ele>
        <time>2025-03-13T13:13:24.148Z</time>
      </trkpt>
      <trkpt lat="50.572012" lon="9.527158">
        <ele>312.341509</ele>
        <time>2025-03-13T13:13:34.149Z</time>
      </trkpt>
      <trkpt lat="50.571932" lon="9.527243">
        <ele>311.929777</ele>
        <time>2025-03-13T13:13:43.136Z</time>
      </trkpt>
      <trkpt lat="50.571837" lon="9.527262">
        <ele>311.521233</ele>
        <time>2025-03-13T13:13:54.150Z</time>
      </trkpt>
      <trkpt lat="50.571743" lon="9.527292">
        <ele>311.112056</ele>
        <time>2025-03-13T13:14:07.156Z</time>
      </trkpt>
      <trkpt lat="50.571665" lon="9.527363">
        <ele>310.727688</ele>
        <time>2025-03-13T13:14:15.143Z</time>
      </trkpt>
      <trkpt lat="50.571563" lon="9.527367">
        <ele>310.292401</ele>
        <time>2025-03-13T13:14:26.162Z</time>
      </trkpt>
      <trkpt lat="50.571465" lon="9.527398">
        <ele>309.851759</ele>
        <time>2025-03-13T13:14:32.151Z</time>
      </trkpt>
      <trkpt lat="50.571380" lon="9.527490">
        <ele>309.382128</ele>
        <time>2025-03-13T13:14:41.157Z</time>
      </trkpt>
      <trkpt lat="50.571310" lon="9.527593">
        <ele>308.945903</ele>
        <time>2025-03-13T13:14:52.147Z</time>
      </trkpt>
      <trkpt lat="50.571280" lon="9.527735">
        <ele>308.513155</ele>
        <time>2025-03-13T13:15:05.144Z</time>
      </trkpt>
      <trkpt lat="50.571303" lon="9.527883">
        <ele>308.072553</ele>
        <time>2025-03-13T13:15:17.163Z</time>
      </trkpt>
      <trkpt lat="50.571300" lon="9.528038">
        <ele>307.624127</ele>
        <time>2025-03-13T13:15:26.151Z</time>
      </trkpt>
      <trkpt lat="50.571302" lon="9.528198">
        <ele>307.161360</ele>
        <time>2025-03-13T13:15:35.145Z</time>
      </trkpt>
      <trkpt lat="50.571283" lon="9.528357">
        <ele>306.693508</ele>
        <time>2025-03-13T13:15:44.156Z</time>
      </trkpt>
      <trkpt lat="50.571290" lon="9.528503">
        <ele>306.270114</ele>
        <time>2025-03-13T13:15:55.142Z</time>
      </trkpt>
      <trkpt lat="50.571312" lon="9.528648">
        <ele>305.839015</ele>
        <time>2025-03-13T13:16:15.149Z</time>
      </trkpt>
      <trkpt lat="50.571287" lon="9.528795">
        <ele>305.398954</ele>
        <time>2025-03-13T13:16:30.154Z</time>
      </trkpt>
      <trkpt lat="50.571363" lon="9.529005">
        <ele>304.700022</ele>
        <time>2025-03-13T13:17:17.153Z</time>
      </trkpt>
      <trkpt lat="50.571453" lon="9.529028">
        <ele>304.284884</ele>
        <time>2025-03-13T13:17:40.159Z</time>
      </trkpt>
      <trkpt lat="50.571557" lon="9.529047">
        <ele>303.808188</ele>
        <time>2025-03-13T13:17:49.159Z</time>
      </trkpt>
      <trkpt lat="50.571638" lon="9.529122">
        <ele>303.380347</ele>
        <time>2025-03-13T13:17:56.137Z</time>
      </trkpt>
      <trkpt lat="50.571727" lon="9.529148">
        <ele>302.968209</ele>
        <time>2025-03-13T13:18:07.158Z</time>
      </trkpt>
      <trkpt lat="50.571818" lon="9.529123">
        <ele>302.547620</ele>
        <time>2025-03-13T13:18:17.163Z</time>
      </trkpt>
      <trkpt lat="50.571910" lon="9.529128">
        <ele>302.128489</ele>
        <time>2025-03-13T13:18:24.146Z</time>
      </trkpt>
      <trkpt lat="50.572000" lon="9.529160">
        <ele>301.923179</ele>
        <time>2025-03-13T13:18:32.159Z</time>
      </trkpt>
      <trkpt lat="50.572083" lon="9.529233">
        <ele>302.008444</ele>
        <time>2025-03-13T13:18:41.150Z</time>
      </trkpt>
      <trkpt lat="50.572170" lon="9.529300">
        <ele>302.095303</ele>
        <time>2025-03-13T13:18:50.151Z</time>
      </trkpt>
      <trkpt lat="50.572262" lon="9.529337">
        <ele>302.180462</ele>
        <time>2025-03-13T13:19:06.157Z</time>
      </trkpt>
      <trkpt lat="50.572350" lon="9.529307">
        <ele>302.261214</ele>
        <time>2025-03-13T13:19:14.161Z</time>
      </trkpt>
      <trkpt lat="50.572453" lon="9.529258">
        <ele>302.357714</ele>
        <time>2025-03-13T13:19:20.156Z</time>
      </trkpt>
      <trkpt lat="50.572543" lon="9.529227">
        <ele>302.440339</ele>
        <time>2025-03-13T13:19:27.152Z</time>
      </trkpt>
      <trkpt lat="50.572642" lon="9.529210">
        <ele>302.529654</ele>
        <time>2025-03-13T13:19:35.141Z</time>
      </trkpt>
      <trkpt lat="50.572742" lon="9.529177">
        <ele>302.621288</ele>
        <time>2025-03-13T13:19:43.152Z</time>
      </trkpt>
      <trkpt lat="50.572833" lon="9.529150">
        <ele>302.704338</ele>
        <time>2025-03-13T13:19:51.164Z</time>
      </trkpt>
      <trkpt lat="50.572927" lon="9.529115">
        <ele>302.790967</ele>
        <time>2025-03-13T13:19:59.149Z</time>
      </trkpt>
      <trkpt lat="50.573022" lon="9.529083">
        <ele>302.878096</ele>
        <time>2025-03-13T13:20:08.149Z</time>
      </trkpt>
      <trkpt lat="50.573110" lon="9.529057">
        <ele>302.958396</ele>
        <time>2025-03-13T13:20:20.162Z</time>
      </trkpt>
      <trkpt lat="50.573198" lon="9.529028">
        <ele>303.039029</ele>
        <time>2025-03-13T13:20:26.152Z</time>
      </trkpt>
      <trkpt lat="50.573285" lon="9.528975">
        <ele>303.122692</ele>
        <time>2025-03-13T13:20:32.156Z</time>
      </trkpt>
      <trkpt lat="50.573373" lon="9.528940">
        <ele>303.204094</ele>
        <time>2025-03-13T13:20:40.147Z</time>
      </trkpt>
      <trkpt lat="50.573468" lon="9.528922">
        <ele>303.289909</ele>
        <time>2025-03-13T13:20:49.151Z</time>
      </trkpt>
      <trkpt lat="50.573562" lon="9.528928">
        <ele>303.374282</ele>
        <time>2025-03-13T13:21:08.152Z</time>
      </trkpt>
      <trkpt lat="50.573653" lon="9.528913">
        <ele>303.456342</ele>
        <time>2025-03-13T13:21:16.150Z</time>
      </trkpt>
      <trkpt lat="50.573757" lon="9.528910">
        <ele>303.548802</ele>
        <time>2025-03-13T13:21:34.168Z</time>
      </trkpt>
      <trkpt lat="50.573852" lon="9.528918">
        <ele>303.632674</ele>
        <time>2025-03-13T13:21:40.157Z</time>
      </trkpt>
      <trkpt lat="50.573948" lon="9.528927">
        <ele>303.717458</ele>
        <time>2025-03-13T13:21:47.156Z</time>
      </trkpt>
      <trkpt lat="50.574043" lon="9.528932">
        <ele>303.801256</ele>
        <time>2025-03-13T13:21:54.152Z</time>
      </trkpt>
      <trkpt lat="50.574140" lon="9.528960">
        <ele>303.888197</ele>
        <time>2025-03-13T13:22:01.148Z</time>
      </trkpt>
      <trkpt lat="50.574235" lon="9.528990">
        <ele>303.973616</ele>
        <time>2025-03-13T13:22:10.150Z</time>
      </trkpt>
      <trkpt lat="50.574320" lon="9.529045">
        <ele>304.054633</ele>
        <time>2025-03-13T13:22:19.146Z</time>
      </trkpt>
      <trkpt lat="50.574410" lon="9.529048">
        <ele>304.133994</ele>
        <time>2025-03-13T13:22:27.152Z</time>
      </trkpt>
      <trkpt lat="50.574508" lon="9.529075">
        <ele>304.221704</ele>
        <time>2025-03-13T13:22:36.152Z</time>
      </trkpt>
      <trkpt lat="50.574590" lon="9.529138">
        <ele>304.302141</ele>
        <time>2025-03-13T13:22:46.164Z</time>
      </trkpt>
      <trkpt lat="50.574675" lon="9.529230">
        <ele>304.393073</ele>
        <time>2025-03-13T13:23:02.146Z</time>
      </trkpt>
      <trkpt lat="50.574770" lon="9.529253">
        <ele>304.477809</ele>
        <time>2025-03-13T13:23:09.165Z</time>
      </trkpt>
      <trkpt lat="50.574860" lon="9.529270">
        <ele>304.557722</ele>
        <time>2025-03-13T13:23:18.152Z</time>
      </trkpt>
      <trkpt lat="50.574945" lon="9.529328">
        <ele>304.639391</ele>
        <time>2025-03-13T13:23:32.158Z</time>
      </trkpt>
      <trkpt lat="50.575035" lon="9.529392">
        <ele>304.726451</ele>
        <time>2025-03-13T13:23:44.157Z</time>
      </trkpt>
      <trkpt lat="50.575137" lon="9.529473">
        <ele>304.827162</ele>
        <time>2025-03-13T13:24:10.150Z</time>
      </trkpt>
      <trkpt lat="50.575157" lon="9.529627">
        <ele>304.915167</ele>
        <time>2025-03-13T13:26:01.148Z</time>
      </trkpt>
      <trkpt lat="50.575242" lon="9.529688">
        <ele>304.997519</ele>
        <time>2025-03-13T13:26:08.162Z</time>
      </trkpt>
      <trkpt lat="50.575335" lon="9.529727">
        <ele>305.082365</ele>
        <time>2025-03-13T13:26:17.164Z</time>
      </trkpt>
      <trkpt lat="50.575405" lon="9.529822">
        <ele>304.946549</ele>
        <time>2025-03-13T13:26:28.151Z</time>
      </trkpt>
      <trkpt lat="50.575492" lon="9.529902">
        <ele>304.785379</ele>
        <time>2025-03-13T13:26:49.151Z</time>
      </trkpt>
      <trkpt lat="50.575547" lon="9.530023">
        <ele>304.634208</ele>
        <time>2025-03-13T13:26:57.149Z</time>
      </trkpt>
      <trkpt lat="50.575610" lon="9.530135">
        <ele>304.482208</ele>
        <time>2025-03-13T13:27:04.150Z</time>
      </trkpt>
      <trkpt lat="50.575697" lon="9.530212">
        <ele>304.322554</ele>
        <time>2025-03-13T13:27:14.147Z</time>
      </trkpt>
      <trkpt lat="50.575795" lon="9.530258">
        <ele>304.158963</ele>
        <time>2025-03-13T13:27:21.148Z</time>
      </trkpt>
      <trkpt lat="50.575873" lon="9.530328">
        <ele>304.015342</ele>
        <time>2025-03-13T13:27:29.152Z</time>
      </trkpt>
      <trkpt lat="50.575948" lon="9.530412">
        <ele>303.868109</ele>
        <time>2025-03-13T13:27:36.155Z</time>
      </trkpt>
      <trkpt lat="50.576012" lon="9.530515">
        <ele>303.721713</ele>
        <time>2025-03-13T13:27:46.150Z</time>
      </trkpt>
      <trkpt lat="50.576092" lon="9.530595">
        <ele>303.570109</ele>
        <time>2025-03-13T13:27:53.150Z</time>
      </trkpt>
      <trkpt lat="50.576175" lon="9.530673">
        <ele>303.415483</ele>
        <time>2025-03-13T13:28:03.157Z</time>
      </trkpt>
      <trkpt lat="50.576252" lon="9.530750">
        <ele>303.269564</ele>
        <time>2025-03-13T13:28:14.169Z</time>
      </trkpt>
      <trkpt lat="50.576325" lon="9.530833">
        <ele>303.125524</ele>
        <time>2025-03-13T13:28:27.158Z</time>
      </trkpt>
      <trkpt lat="50.576407" lon="9.530907">
        <ele>302.974331</ele>
        <time>2025-03-13T13:28:37.151Z</time>
      </trkpt>
      <trkpt lat="50.576480" lon="9.530998">
        <ele>302.825387</ele>
        <time>2025-03-13T13:28:44.148Z</time>
      </trkpt>
      <trkpt lat="50.576550" lon="9.531102">
        <ele>302.671430</ele>
        <time>2025-03-13T13:28:51.167Z</time>
      </trkpt>
      <trkpt lat="50.576625" lon="9.531192">
        <ele>302.520583</ele>
        <time>2025-03-13T13:28:59.158Z</time>
      </trkpt>
      <trkpt lat="50.576710" lon="9.531263">
        <ele>302.366660</ele>
        <time>2025-03-13T13:29:09.156Z</time>
      </trkpt>
      <trkpt lat="50.576798" lon="9.531338">
        <ele>302.214300</ele>
        <time>2025-03-13T13:29:18.151Z</time>
      </trkpt>
      <trkpt lat="50.576883" lon="9.531417">
        <ele>302.507561</ele>
        <time>2025-03-13T13:29:24.154Z</time>
      </trkpt>
      <trkpt lat="50.576957" lon="9.531502">
        <ele>302.779711</ele>
        <time>2025-03-13T13:29:32.153Z</time>
      </trkpt>
      <trkpt lat="50.577032" lon="9.531593">
        <ele>303.061029</ele>
        <time>2025-03-13T13:29:45.168Z</time>
      </trkpt>
      <trkpt lat="50.577110" lon="9.531680">
        <ele>303.345032</ele>
        <time>2025-03-13T13:29:56.153Z</time>
      </trkpt>
      <trkpt lat="50.577195" lon="9.531753">
        <ele>303.632704</ele>
        <time>2025-03-13T13:30:03.154Z</time>
      </trkpt>
      <trkpt lat="50.577263" lon="9.531850">
        <ele>303.905318</ele>
        <time>2025-03-13T13:30:13.158Z</time>
      </trkpt>
      <trkpt lat="50.577345" lon="9.531922">
        <ele>304.184274</ele>
        <time>2025-03-13T13:30:21.155Z</time>
      </trkpt>
      <trkpt lat="50.577435" lon="9.531922">
        <ele>304.451683</ele>
        <time>2025-03-13T13:30:28.157Z</time>
      </trkpt>
      <trkpt lat="50.577522" lon="9.531968">
        <ele>304.724361</ele>
        <time>2025-03-13T13:30:37.152Z</time>
      </trkpt>
      <trkpt lat="50.577607" lon="9.532045">
        <ele>305.015722</ele>
        <time>2025-03-13T13:30:46.149Z</time>
      </trkpt>
      <trkpt lat="50.577690" lon="9.532122">
        <ele>305.301947</ele>
        <time>2025-03-13T13:30:53.160Z</time>
      </trkpt>
      <trkpt lat="50.577782" lon="9.532175">
        <ele>305.593017</ele>
        <time>2025-03-13T13:31:03.151Z</time>
      </trkpt>
      <trkpt lat="50.577870" lon="9.532210">
        <ele>305.862694</ele>
        <time>2025-03-13T13:31:09.153Z</time>
      </trkpt>
      <trkpt lat="50.577948" lon="9.532282">
        <ele>306.131331</ele>
        <time>2025-03-13T13:31:16.152Z</time>
      </trkpt>
      <trkpt lat="50.578037" lon="9.532342">
        <ele>306.418983</ele>
        <time>2025-03-13T13:31:23.147Z</time>
      </trkpt>
      <trkpt lat="50.578123" lon="9.532390">
        <ele>306.690083</ele>
        <time>2025-03-13T13:31:33.164Z</time>
      </trkpt>
      <trkpt lat="50.578215" lon="9.532443">
        <ele>306.981152</ele>
        <time>2025-03-13T13:31:44.152Z</time>
      </trkpt>
      <trkpt lat="50.578307" lon="9.532503">
        <ele>307.277019</ele>
        <time>2025-03-13T13:31:52.152Z</time>
      </trkpt>
      <trkpt lat="50.578393" lon="9.532573">
        <ele>307.564419</ele>
        <time>2025-03-13T13:32:00.155Z</time>
      </trkpt>
      <trkpt lat="50.578480" lon="9.532630">
        <ele>307.838394</ele>
        <time>2025-03-13T13:32:07.152Z</time>
      </trkpt>
      <trkpt lat="50.578555" lon="9.532715">
        <ele>308.107061</ele>
        <time>2025-03-13T13:32:14.153Z</time>
      </trkpt>
      <trkpt lat="50.578627" lon="9.532817">
        <ele>308.388648</ele>
        <time>2025-03-13T13:32:25.149Z</time>
      </trkpt>
      <trkpt lat="50.578710" lon="9.532880">
        <ele>308.656543</ele>
        <time>2025-03-13T13:32:35.147Z</time>
      </trkpt>
      <trkpt lat="50.578807" lon="9.532910">
        <ele>308.943961</ele>
        <time>2025-03-13T13:32:41.159Z</time>
      </trkpt>
      <trkpt lat="50.578898" lon="9.532983">
        <ele>309.240898</ele>
        <time>2025-03-13T13:32:49.167Z</time>
      </trkpt>
      <trkpt lat="50.578978" lon="9.533065">
        <ele>309.518433</ele>
        <time>2025-03-13T13:32:57.158Z</time>
      </trkpt>
      <trkpt lat="50.579047" lon="9.533172">
        <ele>309.799994</ele>
        <time>2025-03-13T13:33:07.157Z</time>
      </trkpt>
      <trkpt lat="50.579115" lon="9.533292">
        <ele>310.096942</ele>
        <time>2025-03-13T13:33:15.155Z</time>
      </trkpt>
      <trkpt lat="50.579195" lon="9.533372">
        <ele>310.372479</ele>
        <time>2025-03-13T13:33:24.154Z</time>
      </trkpt>
      <trkpt lat="50.579253" lon="9.533487">
        <ele>310.643626</ele>
        <time>2025-03-13T13:33:35.154Z</time>
      </trkpt>
      <trkpt lat="50.579317" lon="9.533605">
        <ele>310.930142</ele>
        <time>2025-03-13T13:33:43.159Z</time>
      </trkpt>
      <trkpt lat="50.579392" lon="9.533708">
        <ele>311.219481</ele>
        <time>2025-03-13T13:33:52.158Z</time>
      </trkpt>
      <trkpt lat="50.579450" lon="9.533820">
        <ele>311.486312</ele>
        <time>2025-03-13T13:34:01.151Z</time>
      </trkpt>
      <trkpt lat="50.579517" lon="9.533935">
        <ele>311.774462</ele>
        <time>2025-03-13T13:34:09.150Z</time>
      </trkpt>
      <trkpt lat="50.579565" lon="9.534065">
        <ele>312.052107</ele>
        <time>2025-03-13T13:34:18.157Z</time>
      </trkpt>
      <trkpt lat="50.579658" lon="9.534137">
        <ele>312.353417</ele>
        <time>2025-03-13T13:34:56.153Z</time>
      </trkpt>
      <trkpt lat="50.579687" lon="9.534283">
        <ele>312.635856</ele>
        <time>2025-03-13T13:35:12.154Z</time>
      </trkpt>
      <trkpt lat="50.579765" lon="9.534365">
        <ele>312.847488</ele>
        <time>2025-03-13T13:35:21.153Z</time>
      </trkpt>
      <trkpt lat="50.579840" lon="9.534453">
        <ele>312.987125</ele>
        <time>2025-03-13T13:35:30.161Z</time>
      </trkpt>
      <trkpt lat="50.579905" lon="9.534568">
        <ele>313.133085</ele>
        <time>2025-03-13T13:35:40.150Z</time>
      </trkpt>
      <trkpt lat="50.579998" lon="9.534630">
        <ele>313.283863</ele>
        <time>2025-03-13T13:35:47.155Z</time>
      </trkpt>
      <trkpt lat="50.580057" lon="9.534740">
        <ele>313.420372</ele>
        <time>2025-03-13T13:35:56.150Z</time>
      </trkpt>
      <trkpt lat="50.580133" lon="9.534828">
        <ele>313.561209</ele>
        <time>2025-03-13T13:36:04.160Z</time>
      </trkpt>
      <trkpt lat="50.580208" lon="9.534925">
        <ele>313.706105</ele>
        <time>2025-03-13T13:36:15.152Z</time>
      </trkpt>
      <trkpt lat="50.580283" lon="9.535022">
        <ele>313.851002</ele>
        <time>2025-03-13T13:36:25.145Z</time>
      </trkpt>
      <trkpt lat="50.580368" lon="9.535085">
        <ele>313.991258</ele>
        <time>2025-03-13T13:36:35.159Z</time>
      </trkpt>
      <trkpt lat="50.580455" lon="9.535145">
        <ele>314.133058</ele>
        <time>2025-03-13T13:36:40.166Z</time>
      </trkpt>
      <trkpt lat="50.580545" lon="9.535210">
        <ele>314.280884</ele>
        <time>2025-03-13T13:36:46.156Z</time>
      </trkpt>
      <trkpt lat="50.580630" lon="9.535293">
        <ele>314.430203</ele>
        <time>2025-03-13T13:36:53.164Z</time>
      </trkpt>
      <trkpt lat="50.580725" lon="9.535338">
        <ele>314.578314</ele>
        <time>2025-03-13T13:37:00.155Z</time>
      </trkpt>
      <trkpt lat="50.580818" lon="9.535383">
        <ele>314.723569</ele>
        <time>2025-03-13T13:37:07.152Z</time>
      </trkpt>
      <trkpt lat="50.580898" lon="9.535453">
        <ele>314.860206</ele>
        <time>2025-03-13T13:37:14.156Z</time>
      </trkpt>
      <trkpt lat="50.580967" lon="9.535553">
        <ele>315.000206</ele>
        <time>2025-03-13T13:37:27.149Z</time>
      </trkpt>
      <trkpt lat="50.581042" lon="9.535640">
        <ele>315.139278</ele>
        <time>2025-03-13T13:37:33.161Z</time>
      </trkpt>
      <trkpt lat="50.581112" lon="9.535733">
        <ele>315.276010</ele>
        <time>2025-03-13T13:37:41.155Z</time>
      </trkpt>
      <trkpt lat="50.581205" lon="9.535800">
        <ele>315.428697</ele>
        <time>2025-03-13T13:37:52.139Z</time>
      </trkpt>
      <trkpt lat="50.581275" lon="9.535902">
        <ele>315.097693</ele>
        <time>2025-03-13T13:38:01.158Z</time>
      </trkpt>
      <trkpt lat="50.581358" lon="9.535973">
        <ele>314.588471</ele>
        <time>2025-03-13T13:38:10.154Z</time>
      </trkpt>
      <trkpt lat="50.581412" lon="9.536098">
        <ele>314.070912</ele>
        <time>2025-03-13T13:38:22.161Z</time>
      </trkpt>
      <trkpt lat="50.581488" lon="9.536192">
        <ele>313.549921</ele>
        <time>2025-03-13T13:38:32.151Z</time>
      </trkpt>
      <trkpt lat="50.581575" lon="9.536280">
        <ele>312.992473</ele>
        <time>2025-03-13T13:38:40.157Z</time>
      </trkpt>
      <trkpt lat="50.581658" lon="9.536375">
        <ele>312.439305</ele>
        <time>2025-03-13T13:38:48.150Z</time>
      </trkpt>
      <trkpt lat="50.581743" lon="9.536465">
        <ele>311.887108</ele>
        <time>2025-03-13T13:38:56.152Z</time>
      </trkpt>
      <trkpt lat="50.581790" lon="9.536608">
        <ele>311.335885</ele>
        <time>2025-03-13T13:39:05.147Z</time>
      </trkpt>
      <trkpt lat="50.581848" lon="9.536718">
        <ele>310.846421</ele>
        <time>2025-03-13T13:39:12.151Z</time>
      </trkpt>
      <trkpt lat="50.581943" lon="9.536765">
        <ele>310.309577</ele>
        <time>2025-03-13T13:39:20.156Z</time>
      </trkpt>
      <trkpt lat="50.582040" lon="9.536783">
        <ele>309.783010</ele>
        <time>2025-03-13T13:39:28.155Z</time>
      </trkpt>
      <trkpt lat="50.582128" lon="9.536835">
        <ele>309.276286</ele>
        <time>2025-03-13T13:39:38.158Z</time>
      </trkpt>
      <trkpt lat="50.582203" lon="9.536915">
        <ele>308.787928</ele>
        <time>2025-03-13T13:39:47.155Z</time>
      </trkpt>
      <trkpt lat="50.582287" lon="9.537002">
        <ele>308.245910</ele>
        <time>2025-03-13T13:39:56.159Z</time>
      </trkpt>
      <trkpt lat="50.582370" lon="9.537085">
        <ele>307.715852</ele>
        <time>2025-03-13T13:40:05.156Z</time>
      </trkpt>
      <trkpt lat="50.582430" lon="9.537202">
        <ele>307.201020</ele>
        <time>2025-03-13T13:40:14.168Z</time>
      </trkpt>
      <trkpt lat="50.582497" lon="9.537313">
        <ele>306.676749</ele>
        <time>2025-03-13T13:40:23.167Z</time>
      </trkpt>
      <trkpt lat="50.582565" lon="9.537408">
        <ele>306.186690</ele>
        <time>2025-03-13T13:40:31.156Z</time>
      </trkpt>
      <trkpt lat="50.582597" lon="9.537548">
        <ele>305.766875</ele>
        <time>2025-03-13T13:40:38.154Z</time>
      </trkpt>
      <trkpt lat="50.582665" lon="9.537647">
        <ele>305.742243</ele>
        <time>2025-03-13T13:40:46.149Z</time>
      </trkpt>
      <trkpt lat="50.582708" lon="9.537773">
        <ele>305.718083</ele>
        <time>2025-03-13T13:40:58.152Z</time>
      </trkpt>
      <trkpt lat="50.582790" lon="9.537868">
        <ele>305.691005</ele>
        <time>2025-03-13T13:41:06.148Z</time>
      </trkpt>
      <trkpt lat="50.582858" lon="9.537977">
        <ele>305.665197</ele>
        <time>2025-03-13T13:41:13.156Z</time>
      </trkpt>
      <trkpt lat="50.582937" lon="9.538052">
        <ele>305.640660</ele>
        <time>2025-03-13T13:41:21.159Z</time>
      </trkpt>
      <trkpt lat="50.583027" lon="9.538082">
        <ele>305.616191</ele>
        <time>2025-03-13T13:41:31.161Z</time>
      </trkpt>
      <trkpt lat="50.583077" lon="9.538200">
        <ele>305.592231</ele>
        <time>2025-03-13T13:41:41.154Z</time>
      </trkpt>
      <trkpt lat="50.583147" lon="9.538305">
        <ele>305.566517</ele>
        <time>2025-03-13T13:41:47.155Z</time>
      </trkpt>
      <trkpt lat="50.583230" lon="9.538370">
        <ele>305.541861</ele>
        <time>2025-03-13T13:41:53.152Z</time>
      </trkpt>
      <trkpt lat="50.583307" lon="9.538455">
        <ele>305.516849</ele>
        <time>2025-03-13T13:41:59.161Z</time>
      </trkpt>
      <trkpt lat="50.583370" lon="9.538557">
        <ele>305.492815</ele>
        <time>2025-03-13T13:42:05.157Z</time>
      </trkpt>
      <trkpt lat="50.583428" lon="9.538675">
        <ele>305.467612</ele>
        <time>2025-03-13T13:42:14.152Z</time>
      </trkpt>
      <trkpt lat="50.583482" lon="9.538792">
        <ele>305.443183</ele>
        <time>2025-03-13T13:42:22.155Z</time>
      </trkpt>
      <trkpt lat="50.583495" lon="9.538933">
        <ele>305.419119</ele>
        <time>2025-03-13T13:42:30.155Z</time>
      </trkpt>
      <trkpt lat="50.583470" lon="9.539085">
        <ele>305.392599</ele>
        <time>2025-03-13T13:42:38.152Z</time>
      </trkpt>
      <trkpt lat="50.583430" lon="9.539250">
        <ele>305.362770</ele>
        <time>2025-03-13T13:42:46.165Z</time>
      </trkpt>
      <trkpt lat="50.583368" lon="9.539380">
        <ele>305.335310</ele>
        <time>2025-03-13T13:42:51.164Z</time>
      </trkpt>
      <trkpt lat="50.583307" lon="9.539498">
        <ele>305.309610</ele>
        <time>2025-03-13T13:42:57.157Z</time>
      </trkpt>
      <trkpt lat="50.583233" lon="9.539607">
        <ele>305.077941</ele>
        <time>2025-03-13T13:43:06.158Z</time>
      </trkpt>
      <trkpt lat="50.583140" lon="9.539675">
        <ele>304.515499</ele>
        <time>2025-03-13T13:43:24.154Z</time>
      </trkpt>
      <trkpt lat="50.583120" lon="9.539818">
        <ele>304.005490</ele>
        <time>2025-03-13T13:43:37.148Z</time>
      </trkpt>
      <trkpt lat="50.583162" lon="9.539948">
        <ele>303.497456</ele>
        <time>2025-03-13T13:44:22.158Z</time>
      </trkpt>
      <trkpt lat="50.583265" lon="9.539960">
        <ele>302.930915</ele>
        <time>2025-03-13T13:44:29.161Z</time>
      </trkpt>
      <trkpt lat="50.583362" lon="9.539920">
        <ele>302.380893</ele>
        <time>2025-03-13T13:44:37.159Z</time>
      </trkpt>
      <trkpt lat="50.583450" lon="9.539887">
        <ele>301.884682</ele>
        <time>2025-03-13T13:44:47.167Z</time>
      </trkpt>
      <trkpt lat="50.583548" lon="9.539843">
        <ele>301.325693</ele>
        <time>2025-03-13T13:44:57.154Z</time>
      </trkpt>
      <trkpt lat="50.583643" lon="9.539847">
        <ele>300.804393</ele>
        <time>2025-03-13T13:45:05.156Z</time>
      </trkpt>
      <trkpt lat="50.583735" lon="9.539848">
        <ele>300.299723</ele>
        <time>2025-03-13T13:45:14.158Z</time>
      </trkpt>
      <trkpt lat="50.583830" lon="9.539855">
        <ele>299.778039</ele>
        <time>2025-03-13T13:45:21.153Z</time>
      </trkpt>
      <trkpt lat="50.583923" lon="9.539855">
        <ele>299.267896</ele>
        <time>2025-03-13T13:45:31.162Z</time>
      </trkpt>
      <trkpt lat="50.584012" lon="9.539893">
        <ele>298.762072</ele>
        <time>2025-03-13T13:45:39.152Z</time>
      </trkpt>
      <trkpt lat="50.584105" lon="9.539938">
        <ele>298.228395</ele>
        <time>2025-03-13T13:45:52.148Z</time>
      </trkpt>
      <trkpt lat="50.584197" lon="9.539953">
        <ele>297.721040</ele>
        <time>2025-03-13T13:46:00.150Z</time>
      </trkpt>
      <trkpt lat="50.584293" lon="9.539922">
        <ele>297.183486</ele>
        <time>2025-03-13T13:46:08.157Z</time>
      </trkpt>
      <trkpt lat="50.584392" lon="9.539942">
        <ele>296.635981</ele>
        <time>2025-03-13T13:46:17.161Z</time>
      </trkpt>
      <trkpt lat="50.584487" lon="9.539963">
        <ele>296.109759</ele>
        <time>2025-03-13T13:46:25.151Z</time>
      </trkpt>
      <trkpt lat="50.584593" lon="9.539972">
        <ele>295.527461</ele>
        <time>2025-03-13T13:46:33.159Z</time>
      </trkpt>
      <trkpt lat="50.584685" lon="9.539977">
        <ele>295.426794</ele>
        <time>2025-03-13T13:46:40.160Z</time>
      </trkpt>
      <trkpt lat="50.584778" lon="9.539998">
        <ele>295.426794</ele>
        <time>2025-03-13T13:46:48.156Z</time>
      </trkpt>
      <trkpt lat="50.584877" lon="9.539988">
        <ele>295.426794</ele>
        <time>2025-03-13T13:46:58.157Z</time>
      </trkpt>
      <trkpt lat="50.584972" lon="9.540037">
        <ele>295.426794</ele>
        <time>2025-03-13T13:47:06.154Z</time>
      </trkpt>
      <trkpt lat="50.585067" lon="9.540063">
        <ele>295.426794</ele>
        <time>2025-03-13T13:47:13.158Z</time>
      </trkpt>
      <trkpt lat="50.585160" lon="9.540062">
        <ele>295.426794</ele>
        <time>2025-03-13T13:47:23.156Z</time>
      </trkpt>
      <trkpt lat="50.585255" lon="9.540092">
        <ele>295.426794</ele>
        <time>2025-03-13T13:47:35.155Z</time>
      </trkpt>
      <trkpt lat="50.585345" lon="9.540087">
        <ele>295.426794</ele>
        <time>2025-03-13T13:47:42.158Z</time>
      </trkpt>
      <trkpt lat="50.585438" lon="9.540092">
        <ele>295.426794</ele>
        <time>2025-03-13T13:47:49.156Z</time>
      </trkpt>
      <trkpt lat="50.585535" lon="9.540122">
        <ele>295.426794</ele>
        <time>2025-03-13T13:47:56.151Z</time>
      </trkpt>
      <trkpt lat="50.585633" lon="9.540133">
        <ele>295.426794</ele>
        <time>2025-03-13T13:48:04.158Z</time>
      </trkpt>
      <trkpt lat="50.585735" lon="9.540130">
        <ele>295.426794</ele>
        <time>2025-03-13T13:48:10.154Z</time>
      </trkpt>
      <trkpt lat="50.585828" lon="9.540122">
        <ele>295.426794</ele>
        <time>2025-03-13T13:48:20.152Z</time>
      </trkpt>
      <trkpt lat="50.585918" lon="9.540145">
        <ele>295.426794</ele>
        <time>2025-03-13T13:48:32.147Z</time>
      </trkpt>
      <trkpt lat="50.586018" lon="9.540143">
        <ele>295.426794</ele>
        <time>2025-03-13T13:48:39.161Z</time>
      </trkpt>
      <trkpt lat="50.586108" lon="9.540137">
        <ele>295.426794</ele>
        <time>2025-03-13T13:48:46.175Z</time>
      </trkpt>
      <trkpt lat="50.586205" lon="9.540167">
        <ele>295.426794</ele>
        <time>2025-03-13T13:48:54.156Z</time>
      </trkpt>
      <trkpt lat="50.586302" lon="9.540197">
        <ele>295.426794</ele>
        <time>2025-03-13T13:49:01.161Z</time>
      </trkpt>
      <trkpt lat="50.586278" lon="9.540045">
        <ele>295.426794</ele>
        <time>2025-03-13T13:49:48.158Z</time>
      </trkpt>
    </trkseg>
  </trk>
</gpx>